Osage River (Missouri), Saint Thomas (06926510)

StateMissouriLatestUnknown (10400 cfs)
RiverOsage RiverRatingObservedEstimated
Updated2021-01-20 0:45 (25 minutes ago)Flood - The river is flooding. Obstacles can be treacherous or deadly. The river should be avoided at this stage for casual trips and definitely for the inexperienced. Trips should be attempted only with protective gear and equipment.Flood(none)(none)
Discharge10400 cfs (median: 3620 cfs)High - The river is high and potentially dangerous, especially for the young and / or inexperienced. Normal stream obstacles are sometimes difficult to navigate. Extended distances can be attempted, but canoe travel may not be advisable.High(none)(none)
Height6.32 feetGood - Conditions are ideal for a canoe or kayak. Boats typically will drag on fewer than one-quarter of riffles, if at all, and portages are unnecessary or rare. Normal float lengths can be attempted without a problem.Good(none)(none)
TrendRising (rising over 24 hours)Low - River is low but can still be floated. Some riffles are okay but most come with significant dragging and might need a portage. Float lengths should be reduced to accommodate low flow, dragging, and portages.Low(none)(none)
USGSExternal icon USGS Site (External icon Google Maps)Poor - River is too low to float comfortably. Most or all riffles will drag or must be portaged and some obstacles (such as slick shelf rock) cause undue problems. Avoid the river at this stage for casual paddling trips.Poor(none)(none)

Trending Data

Plot Image

Trips for Osage River (Missouri), Saint Thomas (06926510)

DateStartEndDistanceConditionDischargeHeightFishingDetails

A total of 0 rows are displayed.

Condition Descriptions

Fishing Conditions

Fish Species

Notes

Classic Trip List

The classic River Trips application is still available for use. It is updated with the new system using a data retrofit. It is no longer maintained. The original River Trips application is no longer updated (as of 1 Dec 2016) but can be checked for errors or for the condition of the data before it was converted to the new system.

Gauge Data Table

ObservationHeightDischargeMaximum
Discharge
Minimum
Discharge
Mean
Discharge
P05P10P20P25P50
(Median)
P75P80P90P95
2021-01-20 00:45 6.32 10400 49900 (2005) 667 (2006) 11400 678 901 1340 1450 3620 18000 20700 38300 47800
2021-01-19 23:45 6.28 10300 49500 (2005) 683 (2006) 12200 784 1190 1760 1900 9060 15800 18900 42500 48300
2021-01-19 22:45 6.25 10200 49500 (2005) 683 (2006) 12200 784 1190 1760 1900 9060 15800 18900 42500 48300
2021-01-19 21:45 6.21 10100 49500 (2005) 683 (2006) 12200 784 1190 1760 1900 9060 15800 18900 42500 48300
2021-01-19 20:45 6.13 9850 49500 (2005) 683 (2006) 12200 784 1190 1760 1900 9060 15800 18900 42500 48300
2021-01-19 19:45 5.95 9340 49500 (2005) 683 (2006) 12200 784 1190 1760 1900 9060 15800 18900 42500 48300
2021-01-19 18:45 5.70 8630 49500 (2005) 683 (2006) 12200 784 1190 1760 1900 9060 15800 18900 42500 48300
2021-01-19 17:45 5.35 7620 49500 (2005) 683 (2006) 12200 784 1190 1760 1900 9060 15800 18900 42500 48300
2021-01-19 16:45 4.99 6640 49500 (2005) 683 (2006) 12200 784 1190 1760 1900 9060 15800 18900 42500 48300
2021-01-19 15:45 4.69 5820 49500 (2005) 683 (2006) 12200 784 1190 1760 1900 9060 15800 18900 42500 48300
2021-01-19 14:45 4.48 5240 49500 (2005) 683 (2006) 12200 784 1190 1760 1900 9060 15800 18900 42500 48300
2021-01-19 13:45 4.39 5000 49500 (2005) 683 (2006) 12200 784 1190 1760 1900 9060 15800 18900 42500 48300
2021-01-19 12:45 4.37 4950 49500 (2005) 683 (2006) 12200 784 1190 1760 1900 9060 15800 18900 42500 48300
2021-01-19 11:45 4.40 5030 49500 (2005) 683 (2006) 12200 784 1190 1760 1900 9060 15800 18900 42500 48300
2021-01-19 10:45 4.44 5130 49500 (2005) 683 (2006) 12200 784 1190 1760 1900 9060 15800 18900 42500 48300
2021-01-19 09:45 4.47 5210 49500 (2005) 683 (2006) 12200 784 1190 1760 1900 9060 15800 18900 42500 48300
2021-01-19 08:45 4.49 5270 49500 (2005) 683 (2006) 12200 784 1190 1760 1900 9060 15800 18900 42500 48300
2021-01-19 07:45 4.49 5270 49500 (2005) 683 (2006) 12200 784 1190 1760 1900 9060 15800 18900 42500 48300
2021-01-19 06:45 4.47 5210 49500 (2005) 683 (2006) 12200 784 1190 1760 1900 9060 15800 18900 42500 48300
2021-01-19 05:45 4.42 5080 49500 (2005) 683 (2006) 12200 784 1190 1760 1900 9060 15800 18900 42500 48300
2021-01-19 04:45 4.32 4810 49500 (2005) 683 (2006) 12200 784 1190 1760 1900 9060 15800 18900 42500 48300
2021-01-19 03:45 4.18 4430 49500 (2005) 683 (2006) 12200 784 1190 1760 1900 9060 15800 18900 42500 48300
2021-01-19 02:45 4.02 4020 49500 (2005) 683 (2006) 12200 784 1190 1760 1900 9060 15800 18900 42500 48300
2021-01-19 01:45 3.84 3550 49500 (2005) 683 (2006) 12200 784 1190 1760 1900 9060 15800 18900 42500 48300
2021-01-19 00:45 3.67 3110 49500 (2005) 683 (2006) 12200 784 1190 1760 1900 9060 15800 18900 42500 48300
2021-01-18 23:45 3.50 2700 49400 (2005) 581 (2003) 12400 586 640 1250 1430 6400 14100 18700 45600 49100
2021-01-18 22:45 3.31 2300 49400 (2005) 581 (2003) 12400 586 640 1250 1430 6400 14100 18700 45600 49100
2021-01-18 21:45 3.11 1930 49400 (2005) 581 (2003) 12400 586 640 1250 1430 6400 14100 18700 45600 49100
2021-01-18 20:45 2.94 1650 49400 (2005) 581 (2003) 12400 586 640 1250 1430 6400 14100 18700 45600 49100
2021-01-18 19:45 2.82 1470 49400 (2005) 581 (2003) 12400 586 640 1250 1430 6400 14100 18700 45600 49100
2021-01-18 18:45 2.76 1390 49400 (2005) 581 (2003) 12400 586 640 1250 1430 6400 14100 18700 45600 49100
2021-01-18 17:45 2.75 1380 49400 (2005) 581 (2003) 12400 586 640 1250 1430 6400 14100 18700 45600 49100
2021-01-18 16:45 2.75 1380 49400 (2005) 581 (2003) 12400 586 640 1250 1430 6400 14100 18700 45600 49100
2021-01-18 15:45 2.74 1360 49400 (2005) 581 (2003) 12400 586 640 1250 1430 6400 14100 18700 45600 49100
2021-01-18 14:45 2.74 1360 49400 (2005) 581 (2003) 12400 586 640 1250 1430 6400 14100 18700 45600 49100
2021-01-18 13:45 2.73 1350 49400 (2005) 581 (2003) 12400 586 640 1250 1430 6400 14100 18700 45600 49100
2021-01-18 12:45 2.72 1340 49400 (2005) 581 (2003) 12400 586 640 1250 1430 6400 14100 18700 45600 49100
2021-01-18 11:45 2.71 1320 49400 (2005) 581 (2003) 12400 586 640 1250 1430 6400 14100 18700 45600 49100
2021-01-18 10:45 2.70 1310 49400 (2005) 581 (2003) 12400 586 640 1250 1430 6400 14100 18700 45600 49100
2021-01-18 09:45 2.68 1290 49400 (2005) 581 (2003) 12400 586 640 1250 1430 6400 14100 18700 45600 49100
2021-01-18 08:45 2.67 1270 49400 (2005) 581 (2003) 12400 586 640 1250 1430 6400 14100 18700 45600 49100
2021-01-18 07:45 2.66 1260 49400 (2005) 581 (2003) 12400 586 640 1250 1430 6400 14100 18700 45600 49100
2021-01-18 06:45 2.65 1250 49400 (2005) 581 (2003) 12400 586 640 1250 1430 6400 14100 18700 45600 49100
2021-01-18 05:45 2.64 1240 49400 (2005) 581 (2003) 12400 586 640 1250 1430 6400 14100 18700 45600 49100
2021-01-18 04:45 2.64 1240 49400 (2005) 581 (2003) 12400 586 640 1250 1430 6400 14100 18700 45600 49100
2021-01-18 03:45 2.65 1250 49400 (2005) 581 (2003) 12400 586 640 1250 1430 6400 14100 18700 45600 49100
2021-01-18 02:45 2.65 1250 49400 (2005) 581 (2003) 12400 586 640 1250 1430 6400 14100 18700 45600 49100
2021-01-18 01:45 2.65 1250 49400 (2005) 581 (2003) 12400 586 640 1250 1430 6400 14100 18700 45600 49100
2021-01-18 00:45 2.66 1260 49400 (2005) 581 (2003) 12400 586 640 1250 1430 6400 14100 18700 45600 49100
2021-01-17 23:45 2.66 1260 49300 (2005) 575 (2003) 11800 581 641 1240 1280 6340 15600 18800 40800 48200
2021-01-17 22:45 2.67 1270 49300 (2005) 575 (2003) 11800 581 641 1240 1280 6340 15600 18800 40800 48200
2021-01-17 21:45 2.68 1290 49300 (2005) 575 (2003) 11800 581 641 1240 1280 6340 15600 18800 40800 48200
2021-01-17 20:45 2.69 1300 49300 (2005) 575 (2003) 11800 581 641 1240 1280 6340 15600 18800 40800 48200
2021-01-17 19:45 2.69 1300 49300 (2005) 575 (2003) 11800 581 641 1240 1280 6340 15600 18800 40800 48200
2021-01-17 18:45 2.71 1320 49300 (2005) 575 (2003) 11800 581 641 1240 1280 6340 15600 18800 40800 48200
2021-01-17 17:45 2.72 1340 49300 (2005) 575 (2003) 11800 581 641 1240 1280 6340 15600 18800 40800 48200
2021-01-17 16:45 2.73 1350 49300 (2005) 575 (2003) 11800 581 641 1240 1280 6340 15600 18800 40800 48200
2021-01-17 15:45 2.74 1360 49300 (2005) 575 (2003) 11800 581 641 1240 1280 6340 15600 18800 40800 48200
2021-01-17 14:45 2.76 1390 49300 (2005) 575 (2003) 11800 581 641 1240 1280 6340 15600 18800 40800 48200
2021-01-17 13:45 2.78 1420 49300 (2005) 575 (2003) 11800 581 641 1240 1280 6340 15600 18800 40800 48200
2021-01-17 12:45 2.79 1430 49300 (2005) 575 (2003) 11800 581 641 1240 1280 6340 15600 18800 40800 48200
2021-01-17 11:45 2.82 1470 49300 (2005) 575 (2003) 11800 581 641 1240 1280 6340 15600 18800 40800 48200
2021-01-17 10:45 2.84 1500 49300 (2005) 575 (2003) 11800 581 641 1240 1280 6340 15600 18800 40800 48200
2021-01-17 09:45 2.87 1540 49300 (2005) 575 (2003) 11800 581 641 1240 1280 6340 15600 18800 40800 48200
2021-01-17 08:45 2.89 1570 49300 (2005) 575 (2003) 11800 581 641 1240 1280 6340 15600 18800 40800 48200
2021-01-17 07:45 2.92 1620 49300 (2005) 575 (2003) 11800 581 641 1240 1280 6340 15600 18800 40800 48200
2021-01-17 06:45 2.95 1660 49300 (2005) 575 (2003) 11800 581 641 1240 1280 6340 15600 18800 40800 48200
2021-01-17 05:45 2.99 1730 49300 (2005) 575 (2003) 11800 581 641 1240 1280 6340 15600 18800 40800 48200
2021-01-17 04:45 3.02 1780 49300 (2005) 575 (2003) 11800 581 641 1240 1280 6340 15600 18800 40800 48200
2021-01-17 03:45 3.07 1860 49300 (2005) 575 (2003) 11800 581 641 1240 1280 6340 15600 18800 40800 48200
2021-01-17 02:45 3.13 1960 49300 (2005) 575 (2003) 11800 581 641 1240 1280 6340 15600 18800 40800 48200
2021-01-17 01:45 3.18 2050 49300 (2005) 575 (2003) 11800 581 641 1240 1280 6340 15600 18800 40800 48200
2021-01-17 00:45 2160 49300 (2005) 575 (2003) 11800 581 641 1240 1280 6340 15600 18800 40800 48200
2021-01-16 22:45 3.36 2400 51000 (2016) 565 (2003) 11600 576 657 1210 1290 5940 18200 19700 44800 50900
2021-01-16 21:45 3.43 2540 51000 (2016) 565 (2003) 11600 576 657 1210 1290 5940 18200 19700 44800 50900
2021-01-16 20:45 3.51 2720 51000 (2016) 565 (2003) 11600 576 657 1210 1290 5940 18200 19700 44800 50900
2021-01-16 19:45 3.59 2910 51000 (2016) 565 (2003) 11600 576 657 1210 1290 5940 18200 19700 44800 50900
2021-01-16 18:45 3.67 3110 51000 (2016) 565 (2003) 11600 576 657 1210 1290 5940 18200 19700 44800 50900
2021-01-16 17:45 3.77 3370 51000 (2016) 565 (2003) 11600 576 657 1210 1290 5940 18200 19700 44800 50900
2021-01-16 16:45 3.87 3630 51000 (2016) 565 (2003) 11600 576 657 1210 1290 5940 18200 19700 44800 50900
2021-01-16 15:45 3.98 3910 51000 (2016) 565 (2003) 11600 576 657 1210 1290 5940 18200 19700 44800 50900
2021-01-16 14:45 4.11 4250 51000 (2016) 565 (2003) 11600 576 657 1210 1290 5940 18200 19700 44800 50900
2021-01-16 13:45 4.24 4590 51000 (2016) 565 (2003) 11600 576 657 1210 1290 5940 18200 19700 44800 50900
2021-01-16 12:45 4.39 5000 51000 (2016) 565 (2003) 11600 576 657 1210 1290 5940 18200 19700 44800 50900
2021-01-16 11:45 4.54 5400 51000 (2016) 565 (2003) 11600 576 657 1210 1290 5940 18200 19700 44800 50900
2021-01-16 10:45 4.70 5840 51000 (2016) 565 (2003) 11600 576 657 1210 1290 5940 18200 19700 44800 50900
2021-01-16 09:45 4.87 6310 51000 (2016) 565 (2003) 11600 576 657 1210 1290 5940 18200 19700 44800 50900
2021-01-16 08:45 5.05 6810 51000 (2016) 565 (2003) 11600 576 657 1210 1290 5940 18200 19700 44800 50900
2021-01-16 07:45 5.21 7240 51000 (2016) 565 (2003) 11600 576 657 1210 1290 5940 18200 19700 44800 50900
2021-01-16 06:45 5.39 7740 51000 (2016) 565 (2003) 11600 576 657 1210 1290 5940 18200 19700 44800 50900
2021-01-16 05:45 5.56 8230 51000 (2016) 565 (2003) 11600 576 657 1210 1290 5940 18200 19700 44800 50900
2021-01-16 04:45 5.72 8690 51000 (2016) 565 (2003) 11600 576 657 1210 1290 5940 18200 19700 44800 50900
2021-01-16 03:45 5.87 9110 51000 (2016) 565 (2003) 11600 576 657 1210 1290 5940 18200 19700 44800 50900
2021-01-16 02:45 6.01 9510 51000 (2016) 565 (2003) 11600 576 657 1210 1290 5940 18200 19700 44800 50900
2021-01-16 01:45 6.13 9850 51000 (2016) 565 (2003) 11600 576 657 1210 1290 5940 18200 19700 44800 50900
2021-01-16 00:45 6.25 10200 51000 (2016) 565 (2003) 11600 576 657 1210 1290 5940 18200 19700 44800 50900
2021-01-15 23:45 6.34 10500 52500 (2016) 559 (2003) 11800 575 679 1550 1980 6130 13500 20200 44900 52400
2021-01-15 22:45 6.43 10700 52500 (2016) 559 (2003) 11800 575 679 1550 1980 6130 13500 20200 44900 52400
2021-01-15 21:45 6.49 10900 52500 (2016) 559 (2003) 11800 575 679 1550 1980 6130 13500 20200 44900 52400
2021-01-15 20:45 6.56 11100 52500 (2016) 559 (2003) 11800 575 679 1550 1980 6130 13500 20200 44900 52400
2021-01-15 19:45 6.58 11200 52500 (2016) 559 (2003) 11800 575 679 1550 1980 6130 13500 20200 44900 52400
2021-01-15 18:45 6.57 11100 52500 (2016) 559 (2003) 11800 575 679 1550 1980 6130 13500 20200 44900 52400
2021-01-15 17:45 6.50 10900 52500 (2016) 559 (2003) 11800 575 679 1550 1980 6130 13500 20200 44900 52400
2021-01-15 16:45 6.40 10600 52500 (2016) 559 (2003) 11800 575 679 1550 1980 6130 13500 20200 44900 52400
2021-01-15 15:45 6.21 10100 52500 (2016) 559 (2003) 11800 575 679 1550 1980 6130 13500 20200 44900 52400
2021-01-15 14:45 5.92 9260 52500 (2016) 559 (2003) 11800 575 679 1550 1980 6130 13500 20200 44900 52400
2021-01-15 13:45 5.55 8200 52500 (2016) 559 (2003) 11800 575 679 1550 1980 6130 13500 20200 44900 52400
2021-01-15 12:45 5.06 6840 52500 (2016) 559 (2003) 11800 575 679 1550 1980 6130 13500 20200 44900 52400
2021-01-15 11:45 4.39 5000 52500 (2016) 559 (2003) 11800 575 679 1550 1980 6130 13500 20200 44900 52400
2021-01-15 10:45 3.61 2960 52500 (2016) 559 (2003) 11800 575 679 1550 1980 6130 13500 20200 44900 52400
2021-01-15 09:45 3.06 1840 52500 (2016) 559 (2003) 11800 575 679 1550 1980 6130 13500 20200 44900 52400
2021-01-15 08:45 2.87 1540 52500 (2016) 559 (2003) 11800 575 679 1550 1980 6130 13500 20200 44900 52400
2021-01-15 07:45 2.85 1520 52500 (2016) 559 (2003) 11800 575 679 1550 1980 6130 13500 20200 44900 52400
2021-01-15 06:45 2.84 1500 52500 (2016) 559 (2003) 11800 575 679 1550 1980 6130 13500 20200 44900 52400
2021-01-15 05:45 2.86 1530 52500 (2016) 559 (2003) 11800 575 679 1550 1980 6130 13500 20200 44900 52400
2021-01-15 04:45 2.87 1540 52500 (2016) 559 (2003) 11800 575 679 1550 1980 6130 13500 20200 44900 52400
2021-01-15 03:45 2.88 1560 52500 (2016) 559 (2003) 11800 575 679 1550 1980 6130 13500 20200 44900 52400
2021-01-15 02:45 2.89 1570 52500 (2016) 559 (2003) 11800 575 679 1550 1980 6130 13500 20200 44900 52400
2021-01-15 01:45 2.90 1590 52500 (2016) 559 (2003) 11800 575 679 1550 1980 6130 13500 20200 44900 52400
2021-01-15 00:45 2.92 1620 52500 (2016) 559 (2003) 11800 575 679 1550 1980 6130 13500 20200 44900 52400
2021-01-14 23:45 2.94 1650 56400 (2005) 561 (2003) 12500 570 628 1190 1590 8050 14300 18300 43900 55600
2021-01-14 22:45 2.96 1680 56400 (2005) 561 (2003) 12500 570 628 1190 1590 8050 14300 18300 43900 55600
2021-01-14 21:45 2.99 1730 56400 (2005) 561 (2003) 12500 570 628 1190 1590 8050 14300 18300 43900 55600
2021-01-14 20:45 3.01 1760 56400 (2005) 561 (2003) 12500 570 628 1190 1590 8050 14300 18300 43900 55600
2021-01-14 19:45 3.05 1820 56400 (2005) 561 (2003) 12500 570 628 1190 1590 8050 14300 18300 43900 55600
2021-01-14 18:45 3.07 1860 56400 (2005) 561 (2003) 12500 570 628 1190 1590 8050 14300 18300 43900 55600
2021-01-14 17:45 3.11 1930 56400 (2005) 561 (2003) 12500 570 628 1190 1590 8050 14300 18300 43900 55600
2021-01-14 16:45 3.16 2010 56400 (2005) 561 (2003) 12500 570 628 1190 1590 8050 14300 18300 43900 55600
2021-01-14 15:45 3.20 2090 56400 (2005) 561 (2003) 12500 570 628 1190 1590 8050 14300 18300 43900 55600
2021-01-14 14:45 3.25 2180 56400 (2005) 561 (2003) 12500 570 628 1190 1590 8050 14300 18300 43900 55600
2021-01-14 13:45 3.29 2260 56400 (2005) 561 (2003) 12500 570 628 1190 1590 8050 14300 18300 43900 55600
2021-01-14 12:45 3.35 2380 56400 (2005) 561 (2003) 12500 570 628 1190 1590 8050 14300 18300 43900 55600
2021-01-14 11:45 3.40 2480 56400 (2005) 561 (2003) 12500 570 628 1190 1590 8050 14300 18300 43900 55600
2021-01-14 10:45 3.45 2590 56400 (2005) 561 (2003) 12500 570 628 1190 1590 8050 14300 18300 43900 55600
2021-01-14 09:45 3.53 2770 56400 (2005) 561 (2003) 12500 570 628 1190 1590 8050 14300 18300 43900 55600
2021-01-14 08:45 3.59 2910 56400 (2005) 561 (2003) 12500 570 628 1190 1590 8050 14300 18300 43900 55600
2021-01-14 07:45 3.66 3080 56400 (2005) 561 (2003) 12500 570 628 1190 1590 8050 14300 18300 43900 55600
2021-01-14 06:45 3.73 3260 56400 (2005) 561 (2003) 12500 570 628 1190 1590 8050 14300 18300 43900 55600
2021-01-14 05:45 3.81 3480 56400 (2005) 561 (2003) 12500 570 628 1190 1590 8050 14300 18300 43900 55600
2021-01-14 04:45 3.88 3650 56400 (2005) 561 (2003) 12500 570 628 1190 1590 8050 14300 18300 43900 55600
2021-01-14 03:45 3.97 3890 56400 (2005) 561 (2003) 12500 570 628 1190 1590 8050 14300 18300 43900 55600
2021-01-14 02:45 4.05 4100 56400 (2005) 561 (2003) 12500 570 628 1190 1590 8050 14300 18300 43900 55600
2021-01-14 01:45 4.13 4300 56400 (2005) 561 (2003) 12500 570 628 1190 1590 8050 14300 18300 43900 55600
2021-01-14 00:45 4.21 4510 56400 (2005) 561 (2003) 12500 570 628 1190 1590 8050 14300 18300 43900 55600
2021-01-13 23:45 4.27 4670 58900 (2005) 570 (2003) 12800 578 646 1230 1550 8360 19400 20800 42700 57700
2021-01-13 22:45 4.34 4860 58900 (2005) 570 (2003) 12800 578 646 1230 1550 8360 19400 20800 42700 57700
2021-01-13 21:45 4.40 5030 58900 (2005) 570 (2003) 12800 578 646 1230 1550 8360 19400 20800 42700 57700
2021-01-13 20:45 4.44 5130 58900 (2005) 570 (2003) 12800 578 646 1230 1550 8360 19400 20800 42700 57700
2021-01-13 19:45 4.48 5240 58900 (2005) 570 (2003) 12800 578 646 1230 1550 8360 19400 20800 42700 57700
2021-01-13 18:45 4.51 5320 58900 (2005) 570 (2003) 12800 578 646 1230 1550 8360 19400 20800 42700 57700
2021-01-13 17:45 4.55 5430 58900 (2005) 570 (2003) 12800 578 646 1230 1550 8360 19400 20800 42700 57700
2021-01-13 16:45 4.60 5560 58900 (2005) 570 (2003) 12800 578 646 1230 1550 8360 19400 20800 42700 57700
2021-01-13 15:45 4.68 5790 58900 (2005) 570 (2003) 12800 578 646 1230 1550 8360 19400 20800 42700 57700
2021-01-13 14:45 4.76 6010 58900 (2005) 570 (2003) 12800 578 646 1230 1550 8360 19400 20800 42700 57700
2021-01-13 13:45 4.87 6310 58900 (2005) 570 (2003) 12800 578 646 1230 1550 8360 19400 20800 42700 57700
2021-01-13 12:45 4.96 6560 58900 (2005) 570 (2003) 12800 578 646 1230 1550 8360 19400 20800 42700 57700
2021-01-13 11:45 5.05 6810 58900 (2005) 570 (2003) 12800 578 646 1230 1550 8360 19400 20800 42700 57700
2021-01-13 10:45 5.11 6970 58900 (2005) 570 (2003) 12800 578 646 1230 1550 8360 19400 20800 42700 57700
2021-01-13 09:45 5.13 7020 58900 (2005) 570 (2003) 12800 578 646 1230 1550 8360 19400 20800 42700 57700
2021-01-13 08:45 5.10 6940 58900 (2005) 570 (2003) 12800 578 646 1230 1550 8360 19400 20800 42700 57700
2021-01-13 07:45 5.02 6730 58900 (2005) 570 (2003) 12800 578 646 1230 1550 8360 19400 20800 42700 57700
2021-01-13 06:45 4.88 6330 58900 (2005) 570 (2003) 12800 578 646 1230 1550 8360 19400 20800 42700 57700
2021-01-13 05:45 4.70 5840 58900 (2005) 570 (2003) 12800 578 646 1230 1550 8360 19400 20800 42700 57700
2021-01-13 04:45 4.51 5320 58900 (2005) 570 (2003) 12800 578 646 1230 1550 8360 19400 20800 42700 57700
2021-01-13 03:45 4.37 4950 58900 (2005) 570 (2003) 12800 578 646 1230 1550 8360 19400 20800 42700 57700
2021-01-13 02:45 4.35 4890 58900 (2005) 570 (2003) 12800 578 646 1230 1550 8360 19400 20800 42700 57700
2021-01-13 01:45 4.42 5080 58900 (2005) 570 (2003) 12800 578 646 1230 1550 8360 19400 20800 42700 57700
2021-01-13 00:45 4.53 5370 58900 (2005) 570 (2003) 12800 578 646 1230 1550 8360 19400 20800 42700 57700
2021-01-12 23:45 4.67 5760 54800 (2020) 617 (2007) 12500 621 709 1140 1300 2780 18800 23800 51000 54500
2021-01-12 22:45 4.81 6140 54800 (2020) 617 (2007) 12500 621 709 1140 1300 2780 18800 23800 51000 54500
2021-01-12 21:45 4.96 6560 54800 (2020) 617 (2007) 12500 621 709 1140 1300 2780 18800 23800 51000 54500
2021-01-12 20:45 5.10 6940 54800 (2020) 617 (2007) 12500 621 709 1140 1300 2780 18800 23800 51000 54500
2021-01-12 19:45 5.24 7320 54800 (2020) 617 (2007) 12500 621 709 1140 1300 2780 18800 23800 51000 54500
2021-01-12 18:45 5.36 7650 54800 (2020) 617 (2007) 12500 621 709 1140 1300 2780 18800 23800 51000 54500
2021-01-12 17:45 5.49 8020 54800 (2020) 617 (2007) 12500 621 709 1140 1300 2780 18800 23800 51000 54500
2021-01-12 16:45 5.59 8320 54800 (2020) 617 (2007) 12500 621 709 1140 1300 2780 18800 23800 51000 54500
2021-01-12 15:45 5.68 8580 54800 (2020) 617 (2007) 12500 621 709 1140 1300 2780 18800 23800 51000 54500
2021-01-12 14:45 5.76 8800 54800 (2020) 617 (2007) 12500 621 709 1140 1300 2780 18800 23800 51000 54500
2021-01-12 13:45 5.81 8940 54800 (2020) 617 (2007) 12500 621 709 1140 1300 2780 18800 23800 51000 54500
2021-01-12 12:45 5.84 9030 54800 (2020) 617 (2007) 12500 621 709 1140 1300 2780 18800 23800 51000 54500
2021-01-12 11:45 5.80 8910 54800 (2020) 617 (2007) 12500 621 709 1140 1300 2780 18800 23800 51000 54500
2021-01-12 10:45 5.68 8580 54800 (2020) 617 (2007) 12500 621 709 1140 1300 2780 18800 23800 51000 54500
2021-01-12 09:45 5.47 7970 54800 (2020) 617 (2007) 12500 621 709 1140 1300 2780 18800 23800 51000 54500
2021-01-12 08:45 5.14 7050 54800 (2020) 617 (2007) 12500 621 709 1140 1300 2780 18800 23800 51000 54500
2021-01-12 07:45 4.71 5870 54800 (2020) 617 (2007) 12500 621 709 1140 1300 2780 18800 23800 51000 54500
2021-01-12 06:45 4.31 4780 54800 (2020) 617 (2007) 12500 621 709 1140 1300 2780 18800 23800 51000 54500
2021-01-12 05:45 4.09 4200 54800 (2020) 617 (2007) 12500 621 709 1140 1300 2780 18800 23800 51000 54500
2021-01-12 04:45 4.07 4150 54800 (2020) 617 (2007) 12500 621 709 1140 1300 2780 18800 23800 51000 54500
2021-01-12 03:45 4.12 4280 54800 (2020) 617 (2007) 12500 621 709 1140 1300 2780 18800 23800 51000 54500
2021-01-12 02:45 4.18 4430 54800 (2020) 617 (2007) 12500 621 709 1140 1300 2780 18800 23800 51000 54500
2021-01-12 01:45 4.23 4560 54800 (2020) 617 (2007) 12500 621 709 1140 1300 2780 18800 23800 51000 54500
2021-01-12 00:45 4.26 4640 54800 (2020) 617 (2007) 12500 621 709 1140 1300 2780 18800 23800 51000 54500
2021-01-11 23:45 4.26 4640 72500 (2020) 626 (2007) 13200 626 688 1250 1400 2860 17700 25700 51000 68700
2021-01-11 22:45 4.22 4540 72500 (2020) 626 (2007) 13200 626 688 1250 1400 2860 17700 25700 51000 68700
2021-01-11 21:45 4.12 4280 72500 (2020) 626 (2007) 13200 626 688 1250 1400 2860 17700 25700 51000 68700
2021-01-11 20:45 3.97 3890 72500 (2020) 626 (2007) 13200 626 688 1250 1400 2860 17700 25700 51000 68700
2021-01-11 19:45 3.72 3240 72500 (2020) 626 (2007) 13200 626 688 1250 1400 2860 17700 25700 51000 68700
2021-01-11 18:45 3.39 2460 72500 (2020) 626 (2007) 13200 626 688 1250 1400 2860 17700 25700 51000 68700
2021-01-11 17:45 3.08 1880 72500 (2020) 626 (2007) 13200 626 688 1250 1400 2860 17700 25700 51000 68700
2021-01-11 16:45 2.88 1560 72500 (2020) 626 (2007) 13200 626 688 1250 1400 2860 17700 25700 51000 68700
2021-01-11 15:45 2.80 1450 72500 (2020) 626 (2007) 13200 626 688 1250 1400 2860 17700 25700 51000 68700
2021-01-11 14:45 2.78 1420 72500 (2020) 626 (2007) 13200 626 688 1250 1400 2860 17700 25700 51000 68700
2021-01-11 13:45 2.78 1420 72500 (2020) 626 (2007) 13200 626 688 1250 1400 2860 17700 25700 51000 68700
2021-01-11 12:45 2.78 1420 72500 (2020) 626 (2007) 13200 626 688 1250 1400 2860 17700 25700 51000 68700
2021-01-11 11:45 2.78 1420 72500 (2020) 626 (2007) 13200 626 688 1250 1400 2860 17700 25700 51000 68700
2021-01-11 10:45 2.78 1420 72500 (2020) 626 (2007) 13200 626 688 1250 1400 2860 17700 25700 51000 68700
2021-01-11 09:45 2.79 1430 72500 (2020) 626 (2007) 13200 626 688 1250 1400 2860 17700 25700 51000 68700
2021-01-11 08:45 2.79 1430 72500 (2020) 626 (2007) 13200 626 688 1250 1400 2860 17700 25700 51000 68700
2021-01-11 07:45 2.80 1450 72500 (2020) 626 (2007) 13200 626 688 1250 1400 2860 17700 25700 51000 68700
2021-01-11 06:45 2.80 1450 72500 (2020) 626 (2007) 13200 626 688 1250 1400 2860 17700 25700 51000 68700
2021-01-11 05:45 2.81 1460 72500 (2020) 626 (2007) 13200 626 688 1250 1400 2860 17700 25700 51000 68700
2021-01-11 04:45 2.81 1460 72500 (2020) 626 (2007) 13200 626 688 1250 1400 2860 17700 25700 51000 68700
2021-01-11 03:45 2.82 1470 72500 (2020) 626 (2007) 13200 626 688 1250 1400 2860 17700 25700 51000 68700
2021-01-11 02:45 2.82 1470 72500 (2020) 626 (2007) 13200 626 688 1250 1400 2860 17700 25700 51000 68700
2021-01-11 01:45 2.83 1490 72500 (2020) 626 (2007) 13200 626 688 1250 1400 2860 17700 25700 51000 68700
2021-01-11 00:45 2.83 1490 72500 (2020) 626 (2007) 13200 626 688 1250 1400 2860 17700 25700 51000 68700
2021-01-10 23:45 2.84 1500 53400 (2016) 588 (2003) 12600 598 647 1240 1330 6280 19400 27900 41100 52200
2021-01-10 22:45 2.85 1520 53400 (2016) 588 (2003) 12600 598 647 1240 1330 6280 19400 27900 41100 52200
2021-01-10 21:45 2.85 1520 53400 (2016) 588 (2003) 12600 598 647 1240 1330 6280 19400 27900 41100 52200
2021-01-10 20:45 2.86 1530 53400 (2016) 588 (2003) 12600 598 647 1240 1330 6280 19400 27900 41100 52200
2021-01-10 19:45 2.87 1540 53400 (2016) 588 (2003) 12600 598 647 1240 1330 6280 19400 27900 41100 52200
2021-01-10 18:45 2.88 1560 53400 (2016) 588 (2003) 12600 598 647 1240 1330 6280 19400 27900 41100 52200
2021-01-10 17:45 2.89 1570 53400 (2016) 588 (2003) 12600 598 647 1240 1330 6280 19400 27900 41100 52200
2021-01-10 16:45 2.90 1590 53400 (2016) 588 (2003) 12600 598 647 1240 1330 6280 19400 27900 41100 52200
2021-01-10 15:45 2.91 1600 53400 (2016) 588 (2003) 12600 598 647 1240 1330 6280 19400 27900 41100 52200
2021-01-10 14:45 2.92 1620 53400 (2016) 588 (2003) 12600 598 647 1240 1330 6280 19400 27900 41100 52200
2021-01-10 13:45 2.95 1660 53400 (2016) 588 (2003) 12600 598 647 1240 1330 6280 19400 27900 41100 52200
2021-01-10 12:45 2.96 1680 53400 (2016) 588 (2003) 12600 598 647 1240 1330 6280 19400 27900 41100 52200
2021-01-10 11:45 2.97 1700 53400 (2016) 588 (2003) 12600 598 647 1240 1330 6280 19400 27900 41100 52200
2021-01-10 10:45 2.99 1730 53400 (2016) 588 (2003) 12600 598 647 1240 1330 6280 19400 27900 41100 52200
2021-01-10 09:45 3.01 1760 53400 (2016) 588 (2003) 12600 598 647 1240 1330 6280 19400 27900 41100 52200
2021-01-10 08:45 3.04 1810 53400 (2016) 588 (2003) 12600 598 647 1240 1330 6280 19400 27900 41100 52200
2021-01-10 07:45 3.07 1860 53400 (2016) 588 (2003) 12600 598 647 1240 1330 6280 19400 27900 41100 52200
2021-01-10 06:45 3.10 1910 53400 (2016) 588 (2003) 12600 598 647 1240 1330 6280 19400 27900 41100 52200
2021-01-10 05:45 3.13 1960 53400 (2016) 588 (2003) 12600 598 647 1240 1330 6280 19400 27900 41100 52200
2021-01-10 04:45 3.16 2010 53400 (2016) 588 (2003) 12600 598 647 1240 1330 6280 19400 27900 41100 52200
2021-01-10 03:45 3.20 2090 53400 (2016) 588 (2003) 12600 598 647 1240 1330 6280 19400 27900 41100 52200
2021-01-10 02:45 3.24 2160 53400 (2016) 588 (2003) 12600 598 647 1240 1330 6280 19400 27900 41100 52200
2021-01-10 01:45 3.29 2260 53400 (2016) 588 (2003) 12600 598 647 1240 1330 6280 19400 27900 41100 52200
2021-01-09 23:45 3.39 2460 52200 (2016) 621 (2006) 12800 630 690 1520 1650 7070 19900 23900 39100 51400
2021-01-09 22:45 3.45 2590 52200 (2016) 621 (2006) 12800 630 690 1520 1650 7070 19900 23900 39100 51400
2021-01-09 20:45 3.58 2880 52200 (2016) 621 (2006) 12800 630 690 1520 1650 7070 19900 23900 39100 51400
2021-01-09 19:45 3.65 3060 52200 (2016) 621 (2006) 12800 630 690 1520 1650 7070 19900 23900 39100 51400
2021-01-09 18:45 3.73 3260 52200 (2016) 621 (2006) 12800 630 690 1520 1650 7070 19900 23900 39100 51400
2021-01-09 17:45 3.82 3510 52200 (2016) 621 (2006) 12800 630 690 1520 1650 7070 19900 23900 39100 51400
2021-01-09 16:45 3.91 3730 52200 (2016) 621 (2006) 12800 630 690 1520 1650 7070 19900 23900 39100 51400
2021-01-09 15:45 4.02 4020 52200 (2016) 621 (2006) 12800 630 690 1520 1650 7070 19900 23900 39100 51400
2021-01-09 14:45 4.13 4300 52200 (2016) 621 (2006) 12800 630 690 1520 1650 7070 19900 23900 39100 51400
2021-01-09 13:45 4.24 4590 52200 (2016) 621 (2006) 12800 630 690 1520 1650 7070 19900 23900 39100 51400
2021-01-09 12:45 4.36 4920 52200 (2016) 621 (2006) 12800 630 690 1520 1650 7070 19900 23900 39100 51400
2021-01-09 11:45 4.49 5270 52200 (2016) 621 (2006) 12800 630 690 1520 1650 7070 19900 23900 39100 51400
2021-01-09 10:45 4.60 5560 52200 (2016) 621 (2006) 12800 630 690 1520 1650 7070 19900 23900 39100 51400
2021-01-09 09:45 4.74 5950 52200 (2016) 621 (2006) 12800 630 690 1520 1650 7070 19900 23900 39100 51400
2021-01-09 08:45 4.86 6280 52200 (2016) 621 (2006) 12800 630 690 1520 1650 7070 19900 23900 39100 51400
2021-01-09 07:45 4.97 6590 52200 (2016) 621 (2006) 12800 630 690 1520 1650 7070 19900 23900 39100 51400
2021-01-09 06:45 5.08 6890 52200 (2016) 621 (2006) 12800 630 690 1520 1650 7070 19900 23900 39100 51400
2021-01-09 05:45 5.17 7130 52200 (2016) 621 (2006) 12800 630 690 1520 1650 7070 19900 23900 39100 51400
2021-01-09 04:45 5.25 7350 52200 (2016) 621 (2006) 12800 630 690 1520 1650 7070 19900 23900 39100 51400
2021-01-09 03:45 5.30 7480 52200 (2016) 621 (2006) 12800 630 690 1520 1650 7070 19900 23900 39100 51400
2021-01-09 02:45 5.33 7570 52200 (2016) 621 (2006) 12800 630 690 1520 1650 7070 19900 23900 39100 51400
2021-01-09 01:45 5.35 7620 52200 (2016) 621 (2006) 12800 630 690 1520 1650 7070 19900 23900 39100 51400
2021-01-09 00:45 5.34 7600 52200 (2016) 621 (2006) 12800 630 690 1520 1650 7070 19900 23900 39100 51400
2021-01-08 23:45 5.32 7540 51300 (2005) 670 (2006) 13600 678 730 1560 2140 8350 20100 24200 41800 51300
2021-01-08 22:45 5.28 7430 51300 (2005) 670 (2006) 13600 678 730 1560 2140 8350 20100 24200 41800 51300
2021-01-08 21:45 5.20 7210 51300 (2005) 670 (2006) 13600 678 730 1560 2140 8350 20100 24200 41800 51300
2021-01-08 20:45 5.08 6890 51300 (2005) 670 (2006) 13600 678 730 1560 2140 8350 20100 24200 41800 51300
2021-01-08 19:45 4.87 6310 51300 (2005) 670 (2006) 13600 678 730 1560 2140 8350 20100 24200 41800 51300
2021-01-08 18:45 4.60 5560 51300 (2005) 670 (2006) 13600 678 730 1560 2140 8350 20100 24200 41800 51300
2021-01-08 17:45 4.33 4840 51300 (2005) 670 (2006) 13600 678 730 1560 2140 8350 20100 24200 41800 51300
2021-01-08 16:45 4.15 4350 51300 (2005) 670 (2006) 13600 678 730 1560 2140 8350 20100 24200 41800 51300
2021-01-08 15:45 4.11 4250 51300 (2005) 670 (2006) 13600 678 730 1560 2140 8350 20100 24200 41800 51300
2021-01-08 14:45 4.18 4430 51300 (2005) 670 (2006) 13600 678 730 1560 2140 8350 20100 24200 41800 51300
2021-01-08 13:45 4.29 4730 51300 (2005) 670 (2006) 13600 678 730 1560 2140 8350 20100 24200 41800 51300
2021-01-08 12:45 4.41 5060 51300 (2005) 670 (2006) 13600 678 730 1560 2140 8350 20100 24200 41800 51300
2021-01-08 11:45 4.52 5350 51300 (2005) 670 (2006) 13600 678 730 1560 2140 8350 20100 24200 41800 51300
2021-01-08 10:45 4.63 5650 51300 (2005) 670 (2006) 13600 678 730 1560 2140 8350 20100 24200 41800 51300
2021-01-08 09:45 4.73 5930 51300 (2005) 670 (2006) 13600 678 730 1560 2140 8350 20100 24200 41800 51300
2021-01-08 08:45 4.82 6170 51300 (2005) 670 (2006) 13600 678 730 1560 2140 8350 20100 24200 41800 51300
2021-01-08 07:45 4.91 6420 51300 (2005) 670 (2006) 13600 678 730 1560 2140 8350 20100 24200 41800 51300
2021-01-08 06:45 4.97 6590 51300 (2005) 670 (2006) 13600 678 730 1560 2140 8350 20100 24200 41800 51300
2021-01-08 05:45 5.02 6730 51300 (2005) 670 (2006) 13600 678 730 1560 2140 8350 20100 24200 41800 51300
2021-01-08 04:45 5.04 6780 51300 (2005) 670 (2006) 13600 678 730 1560 2140 8350 20100 24200 41800 51300
2021-01-08 03:45 5.05 6810 51300 (2005) 670 (2006) 13600 678 730 1560 2140 8350 20100 24200 41800 51300
2021-01-08 02:45 5.04 6780 51300 (2005) 670 (2006) 13600 678 730 1560 2140 8350 20100 24200 41800 51300
2021-01-08 01:45 5.04 6780 51300 (2005) 670 (2006) 13600 678 730 1560 2140 8350 20100 24200 41800 51300
2021-01-08 00:45 5.05 6810 51300 (2005) 670 (2006) 13600 678 730 1560 2140 8350 20100 24200 41800 51300
2021-01-07 23:45 5.05 6810 62100 (2005) 572 (2003) 12600 608 784 1480 1570 5080 20900 21700 41000 59900
2021-01-07 22:45 5.08 6890 62100 (2005) 572 (2003) 12600 608 784 1480 1570 5080 20900 21700 41000 59900
2021-01-07 21:45 5.06 6840 62100 (2005) 572 (2003) 12600 608 784 1480 1570 5080 20900 21700 41000 59900
2021-01-07 20:45 4.99 6640 62100 (2005) 572 (2003) 12600 608 784 1480 1570 5080 20900 21700 41000 59900
2021-01-07 19:45 4.86 6280 62100 (2005) 572 (2003) 12600 608 784 1480 1570 5080 20900 21700 41000 59900
2021-01-07 18:45 4.67 5760 62100 (2005) 572 (2003) 12600 608 784 1480 1570 5080 20900 21700 41000 59900
2021-01-07 17:45 4.42 5080 62100 (2005) 572 (2003) 12600 608 784 1480 1570 5080 20900 21700 41000 59900
2021-01-07 16:45 4.16 4380 62100 (2005) 572 (2003) 12600 608 784 1480 1570 5080 20900 21700 41000 59900
2021-01-07 15:45 3.98 3910 62100 (2005) 572 (2003) 12600 608 784 1480 1570 5080 20900 21700 41000 59900
2021-01-07 14:45 3.90 3700 62100 (2005) 572 (2003) 12600 608 784 1480 1570 5080 20900 21700 41000 59900
2021-01-07 13:45 3.88 3650 62100 (2005) 572 (2003) 12600 608 784 1480 1570 5080 20900 21700 41000 59900
2021-01-07 12:45 3.87 3630 62100 (2005) 572 (2003) 12600 608 784 1480 1570 5080 20900 21700 41000 59900
2021-01-07 11:45 3.83 3530 62100 (2005) 572 (2003) 12600 608 784 1480 1570 5080 20900 21700 41000 59900
2021-01-07 10:45 3.76 3340 62100 (2005) 572 (2003) 12600 608 784 1480 1570 5080 20900 21700 41000 59900
2021-01-07 09:45 3.68 3130 62100 (2005) 572 (2003) 12600 608 784 1480 1570 5080 20900 21700 41000 59900
2021-01-07 08:45 3.57 2860 62100 (2005) 572 (2003) 12600 608 784 1480 1570 5080 20900 21700 41000 59900
2021-01-07 07:45 3.46 2610 62100 (2005) 572 (2003) 12600 608 784 1480 1570 5080 20900 21700 41000 59900
2021-01-07 06:45 3.38 2440 62100 (2005) 572 (2003) 12600 608 784 1480 1570 5080 20900 21700 41000 59900
2021-01-07 05:45 3.32 2320 62100 (2005) 572 (2003) 12600 608 784 1480 1570 5080 20900 21700 41000 59900
2021-01-07 04:45 3.29 2260 62100 (2005) 572 (2003) 12600 608 784 1480 1570 5080 20900 21700 41000 59900
2021-01-07 03:45 3.27 2220 62100 (2005) 572 (2003) 12600 608 784 1480 1570 5080 20900 21700 41000 59900
2021-01-07 02:45 3.26 2200 62100 (2005) 572 (2003) 12600 608 784 1480 1570 5080 20900 21700 41000 59900
2021-01-07 01:45 3.25 2180 62100 (2005) 572 (2003) 12600 608 784 1480 1570 5080 20900 21700 41000 59900
2021-01-07 00:45 3.22 2120 62100 (2005) 572 (2003) 12600 608 784 1480 1570 5080 20900 21700 41000 59900
2021-01-06 23:45 3.17 2030 79600 (2005) 568 (2003) 12500 616 834 1540 1690 5120 15500 21200 40100 73500
2021-01-06 22:45 3.12 1940 79600 (2005) 568 (2003) 12500 616 834 1540 1690 5120 15500 21200 40100 73500
2021-01-06 21:45 3.06 1840 79600 (2005) 568 (2003) 12500 616 834 1540 1690 5120 15500 21200 40100 73500
2021-01-06 20:45 3.01 1760 79600 (2005) 568 (2003) 12500 616 834 1540 1690 5120 15500 21200 40100 73500
2021-01-06 19:45 2.97 1700 79600 (2005) 568 (2003) 12500 616 834 1540 1690 5120 15500 21200 40100 73500
2021-01-06 18:45 2.94 1650 79600 (2005) 568 (2003) 12500 616 834 1540 1690 5120 15500 21200 40100 73500
2021-01-06 17:45 2.93 1630 79600 (2005) 568 (2003) 12500 616 834 1540 1690 5120 15500 21200 40100 73500
2021-01-06 16:45 2.92 1620 79600 (2005) 568 (2003) 12500 616 834 1540 1690 5120 15500 21200 40100 73500
2021-01-06 15:45 2.93 1630 79600 (2005) 568 (2003) 12500 616 834 1540 1690 5120 15500 21200 40100 73500
2021-01-06 14:45 2.93 1630 79600 (2005) 568 (2003) 12500 616 834 1540 1690 5120 15500 21200 40100 73500
2021-01-06 13:45 2.94 1650 79600 (2005) 568 (2003) 12500 616 834 1540 1690 5120 15500 21200 40100 73500
2021-01-06 12:45 2.94 1650 79600 (2005) 568 (2003) 12500 616 834 1540 1690 5120 15500 21200 40100 73500
2021-01-06 11:45 2.94 1650 79600 (2005) 568 (2003) 12500 616 834 1540 1690 5120 15500 21200 40100 73500
2021-01-06 10:45 2.95 1660 79600 (2005) 568 (2003) 12500 616 834 1540 1690 5120 15500 21200 40100 73500
2021-01-06 09:45 2.95 1660 79600 (2005) 568 (2003) 12500 616 834 1540 1690 5120 15500 21200 40100 73500
2021-01-06 08:45 2.95 1660 79600 (2005) 568 (2003) 12500 616 834 1540 1690 5120 15500 21200 40100 73500
2021-01-06 07:45 2.96 1680 79600 (2005) 568 (2003) 12500 616 834 1540 1690 5120 15500 21200 40100 73500
2021-01-06 06:45 2.96 1680 79600 (2005) 568 (2003) 12500 616 834 1540 1690 5120 15500 21200 40100 73500
2021-01-06 05:45 2.97 1700 79600 (2005) 568 (2003) 12500 616 834 1540 1690 5120 15500 21200 40100 73500
2021-01-06 04:45 2.97 1700 79600 (2005) 568 (2003) 12500 616 834 1540 1690 5120 15500 21200 40100 73500
2021-01-06 03:45 2.98 1710 79600 (2005) 568 (2003) 12500 616 834 1540 1690 5120 15500 21200 40100 73500
2021-01-06 02:45 2.98 1710 79600 (2005) 568 (2003) 12500 616 834 1540 1690 5120 15500 21200 40100 73500
2021-01-06 01:45 2.98 1710 79600 (2005) 568 (2003) 12500 616 834 1540 1690 5120 15500 21200 40100 73500
2021-01-06 00:45 2.99 1730 79600 (2005) 568 (2003) 12500 616 834 1540 1690 5120 15500 21200 40100 73500
2021-01-05 23:45 3.00 1740 67700 (2005) 577 (2003) 11400 589 882 1410 1730 3620 19100 20900 34900 62700
2021-01-05 22:45 3.00 1740 67700 (2005) 577 (2003) 11400 589 882 1410 1730 3620 19100 20900 34900 62700
2021-01-05 21:45 3.00 1740 67700 (2005) 577 (2003) 11400 589 882 1410 1730 3620 19100 20900 34900 62700
2021-01-05 20:45 3.01 1760 67700 (2005) 577 (2003) 11400 589 882 1410 1730 3620 19100 20900 34900 62700
2021-01-05 19:45 3.01 1760 67700 (2005) 577 (2003) 11400 589 882 1410 1730 3620 19100 20900 34900 62700
2021-01-05 18:45 3.02 1780 67700 (2005) 577 (2003) 11400 589 882 1410 1730 3620 19100 20900 34900 62700
2021-01-05 17:45 3.02 1780 67700 (2005) 577 (2003) 11400 589 882 1410 1730 3620 19100 20900 34900 62700
2021-01-05 16:45 3.02 1780 67700 (2005) 577 (2003) 11400 589 882 1410 1730 3620 19100 20900 34900 62700
2021-01-05 15:45 3.03 1790 67700 (2005) 577 (2003) 11400 589 882 1410 1730 3620 19100 20900 34900 62700
2021-01-05 14:45 3.03 1790 67700 (2005) 577 (2003) 11400 589 882 1410 1730 3620 19100 20900 34900 62700
2021-01-05 13:45 3.04 1810 67700 (2005) 577 (2003) 11400 589 882 1410 1730 3620 19100 20900 34900 62700
2021-01-05 12:45 3.04 1810 67700 (2005) 577 (2003) 11400 589 882 1410 1730 3620 19100 20900 34900 62700
2021-01-05 11:45 3.04 1810 67700 (2005) 577 (2003) 11400 589 882 1410 1730 3620 19100 20900 34900 62700
2021-01-05 10:45 3.04 1810 67700 (2005) 577 (2003) 11400 589 882 1410 1730 3620 19100 20900 34900 62700
2021-01-05 09:45 3.04 1810 67700 (2005) 577 (2003) 11400 589 882 1410 1730 3620 19100 20900 34900 62700
2021-01-05 08:45 3.04 1810 67700 (2005) 577 (2003) 11400 589 882 1410 1730 3620 19100 20900 34900 62700
2021-01-05 07:45 3.04 1810 67700 (2005) 577 (2003) 11400 589 882 1410 1730 3620 19100 20900 34900 62700
2021-01-05 06:45 3.04 1810 67700 (2005) 577 (2003) 11400 589 882 1410 1730 3620 19100 20900 34900 62700
2021-01-05 05:45 3.04 1810 67700 (2005) 577 (2003) 11400 589 882 1410 1730 3620 19100 20900 34900 62700
2021-01-05 04:45 3.05 1820 67700 (2005) 577 (2003) 11400 589 882 1410 1730 3620 19100 20900 34900 62700
2021-01-05 03:45 3.05 1820 67700 (2005) 577 (2003) 11400 589 882 1410 1730 3620 19100 20900 34900 62700
2021-01-05 02:45 3.05 1820 67700 (2005) 577 (2003) 11400 589 882 1410 1730 3620 19100 20900 34900 62700
2021-01-05 01:45 3.05 1820 67700 (2005) 577 (2003) 11400 589 882 1410 1730 3620 19100 20900 34900 62700
2021-01-05 00:45 3.05 1820 67700 (2005) 577 (2003) 11400 589 882 1410 1730 3620 19100 20900 34900 62700
2021-01-04 23:45 3.05 1820 41700 (2016) 586 (2003) 9410 597 690 1240 1650 2910 17400 20400 32900 40500
2021-01-04 22:45 3.05 1820 41700 (2016) 586 (2003) 9410 597 690 1240 1650 2910 17400 20400 32900 40500
2021-01-04 21:45 3.05 1820 41700 (2016) 586 (2003) 9410 597 690 1240 1650 2910 17400 20400 32900 40500
2021-01-04 20:45 3.05 1820 41700 (2016) 586 (2003) 9410 597 690 1240 1650 2910 17400 20400 32900 40500
2021-01-04 19:45 3.05 1820 41700 (2016) 586 (2003) 9410 597 690 1240 1650 2910 17400 20400 32900 40500
2021-01-04 18:45 3.05 1820 41700 (2016) 586 (2003) 9410 597 690 1240 1650 2910 17400 20400 32900 40500
2021-01-04 17:45 3.05 1820 41700 (2016) 586 (2003) 9410 597 690 1240 1650 2910 17400 20400 32900 40500
2021-01-04 16:45 3.05 1820 41700 (2016) 586 (2003) 9410 597 690 1240 1650 2910 17400 20400 32900 40500
2021-01-04 15:45 3.05 1820 41700 (2016) 586 (2003) 9410 597 690 1240 1650 2910 17400 20400 32900 40500
2021-01-04 14:45 3.05 1820 41700 (2016) 586 (2003) 9410 597 690 1240 1650 2910 17400 20400 32900 40500
2021-01-04 13:45 3.05 1820 41700 (2016) 586 (2003) 9410 597 690 1240 1650 2910 17400 20400 32900 40500
2021-01-04 12:45 3.05 1820 41700 (2016) 586 (2003) 9410 597 690 1240 1650 2910 17400 20400 32900 40500
2021-01-04 11:45 3.05 1820 41700 (2016) 586 (2003) 9410 597 690 1240 1650 2910 17400 20400 32900 40500
2021-01-04 10:45 3.05 1820 41700 (2016) 586 (2003) 9410 597 690 1240 1650 2910 17400 20400 32900 40500
2021-01-04 09:45 3.05 1820 41700 (2016) 586 (2003) 9410 597 690 1240 1650 2910 17400 20400 32900 40500
2021-01-04 08:45 3.05 1820 41700 (2016) 586 (2003) 9410 597 690 1240 1650 2910 17400 20400 32900 40500
2021-01-04 07:45 3.06 1840 41700 (2016) 586 (2003) 9410 597 690 1240 1650 2910 17400 20400 32900 40500
2021-01-04 06:45 3.06 1840 41700 (2016) 586 (2003) 9410 597 690 1240 1650 2910 17400 20400 32900 40500
2021-01-04 05:45 3.06 1840 41700 (2016) 586 (2003) 9410 597 690 1240 1650 2910 17400 20400 32900 40500
2021-01-04 04:45 3.06 1840 41700 (2016) 586 (2003) 9410 597 690 1240 1650 2910 17400 20400 32900 40500
2021-01-04 03:45 3.07 1860 41700 (2016) 586 (2003) 9410 597 690 1240 1650 2910 17400 20400 32900 40500
2021-01-04 02:45 3.07 1860 41700 (2016) 586 (2003) 9410 597 690 1240 1650 2910 17400 20400 32900 40500
2021-01-04 01:45 3.08 1880 41700 (2016) 586 (2003) 9410 597 690 1240 1650 2910 17400 20400 32900 40500
2021-01-04 00:45 3.08 1880 41700 (2016) 586 (2003) 9410 597 690 1240 1650 2910 17400 20400 32900 40500
2021-01-03 23:45 3.09 1890 37500 (2016) 594 (2003) 8490 604 655 1250 1390 3600 11600 14600 28600 36400
2021-01-03 22:45 3.10 1910 37500 (2016) 594 (2003) 8490 604 655 1250 1390 3600 11600 14600 28600 36400
2021-01-03 21:45 3.10 1910 37500 (2016) 594 (2003) 8490 604 655 1250 1390 3600 11600 14600 28600 36400
2021-01-03 20:45 3.12 1940 37500 (2016) 594 (2003) 8490 604 655 1250 1390 3600 11600 14600 28600 36400
2021-01-03 19:45 3.12 1940 37500 (2016) 594 (2003) 8490 604 655 1250 1390 3600 11600 14600 28600 36400
2021-01-03 18:45 3.13 1960 37500 (2016) 594 (2003) 8490 604 655 1250 1390 3600 11600 14600 28600 36400
2021-01-03 17:45 3.14 1980 37500 (2016) 594 (2003) 8490 604 655 1250 1390 3600 11600 14600 28600 36400
2021-01-03 16:45 3.15 2000 37500 (2016) 594 (2003) 8490 604 655 1250 1390 3600 11600 14600 28600 36400
2021-01-03 15:45 3.16 2010 37500 (2016) 594 (2003) 8490 604 655 1250 1390 3600 11600 14600 28600 36400
2021-01-03 14:45 3.18 2050 37500 (2016) 594 (2003) 8490 604 655 1250 1390 3600 11600 14600 28600 36400
2021-01-03 13:45 3.18 2050 37500 (2016) 594 (2003) 8490 604 655 1250 1390 3600 11600 14600 28600 36400
2021-01-03 12:45 3.20 2090 37500 (2016) 594 (2003) 8490 604 655 1250 1390 3600 11600 14600 28600 36400
2021-01-03 11:45 3.21 2110 37500 (2016) 594 (2003) 8490 604 655 1250 1390 3600 11600 14600 28600 36400
2021-01-03 10:45 3.22 2120 37500 (2016) 594 (2003) 8490 604 655 1250 1390 3600 11600 14600 28600 36400
2021-01-03 09:45 3.23 2140 37500 (2016) 594 (2003) 8490 604 655 1250 1390 3600 11600 14600 28600 36400
2021-01-03 08:45 3.24 2160 37500 (2016) 594 (2003) 8490 604 655 1250 1390 3600 11600 14600 28600 36400
2021-01-03 07:45 3.26 2200 37500 (2016) 594 (2003) 8490 604 655 1250 1390 3600 11600 14600 28600 36400
2021-01-03 06:45 3.27 2220 37500 (2016) 594 (2003) 8490 604 655 1250 1390 3600 11600 14600 28600 36400
2021-01-03 05:45 3.29 2260 37500 (2016) 594 (2003) 8490 604 655 1250 1390 3600 11600 14600 28600 36400
2021-01-03 04:45 3.30 2280 37500 (2016) 594 (2003) 8490 604 655 1250 1390 3600 11600 14600 28600 36400
2021-01-03 03:45 3.32 2320 37500 (2016) 594 (2003) 8490 604 655 1250 1390 3600 11600 14600 28600 36400
2021-01-03 02:45 3.33 2340 37500 (2016) 594 (2003) 8490 604 655 1250 1390 3600 11600 14600 28600 36400
2021-01-03 01:45 3.35 2380 37500 (2016) 594 (2003) 8490 604 655 1250 1390 3600 11600 14600 28600 36400
2021-01-03 00:45 3.36 2400 37500 (2016) 594 (2003) 8490 604 655 1250 1390 3600 11600 14600 28600 36400
2021-01-02 23:45 3.38 2440 35200 (2016) 588 (2003) 7750 596 640 1250 1300 2320 15000 16800 28100 34400
2021-01-02 22:45 3.41 2500 35200 (2016) 588 (2003) 7750 596 640 1250 1300 2320 15000 16800 28100 34400
2021-01-02 21:45 3.43 2540 35200 (2016) 588 (2003) 7750 596 640 1250 1300 2320 15000 16800 28100 34400
2021-01-02 20:45 3.44 2570 35200 (2016) 588 (2003) 7750 596 640 1250 1300 2320 15000 16800 28100 34400
2021-01-02 19:45 3.47 2630 35200 (2016) 588 (2003) 7750 596 640 1250 1300 2320 15000 16800 28100 34400
2021-01-02 18:45 3.49 2670 35200 (2016) 588 (2003) 7750 596 640 1250 1300 2320 15000 16800 28100 34400
2021-01-02 17:45 3.51 2720 35200 (2016) 588 (2003) 7750 596 640 1250 1300 2320 15000 16800 28100 34400
2021-01-02 16:45 3.53 2770 35200 (2016) 588 (2003) 7750 596 640 1250 1300 2320 15000 16800 28100 34400
2021-01-02 15:45 3.55 2810 35200 (2016) 588 (2003) 7750 596 640 1250 1300 2320 15000 16800 28100 34400
2021-01-02 14:45 3.57 2860 35200 (2016) 588 (2003) 7750 596 640 1250 1300 2320 15000 16800 28100 34400
2021-01-02 13:45 3.60 2930 35200 (2016) 588 (2003) 7750 596 640 1250 1300 2320 15000 16800 28100 34400
2021-01-02 12:45 3.62 2980 35200 (2016) 588 (2003) 7750 596 640 1250 1300 2320 15000 16800 28100 34400
2021-01-02 11:45 3.64 3030 35200 (2016) 588 (2003) 7750 596 640 1250 1300 2320 15000 16800 28100 34400
2021-01-02 10:45 3.66 3080 35200 (2016) 588 (2003) 7750 596 640 1250 1300 2320 15000 16800 28100 34400
2021-01-02 09:45 3.68 3130 35200 (2016) 588 (2003) 7750 596 640 1250 1300 2320 15000 16800 28100 34400
2021-01-02 08:45 3.70 3180 35200 (2016) 588 (2003) 7750 596 640 1250 1300 2320 15000 16800 28100 34400
2021-01-02 07:45 3.72 3240 35200 (2016) 588 (2003) 7750 596 640 1250 1300 2320 15000 16800 28100 34400
2021-01-02 06:45 3.73 3260 35200 (2016) 588 (2003) 7750 596 640 1250 1300 2320 15000 16800 28100 34400
2021-01-02 05:45 3.74 3290 35200 (2016) 588 (2003) 7750 596 640 1250 1300 2320 15000 16800 28100 34400
2021-01-02 04:45 3.75 3320 35200 (2016) 588 (2003) 7750 596 640 1250 1300 2320 15000 16800 28100 34400
2021-01-02 03:45 3.75 3320 35200 (2016) 588 (2003) 7750 596 640 1250 1300 2320 15000 16800 28100 34400
2021-01-02 02:45 3.74 3290 35200 (2016) 588 (2003) 7750 596 640 1250 1300 2320 15000 16800 28100 34400
2021-01-02 01:45 3.72 3240 35200 (2016) 588 (2003) 7750 596 640 1250 1300 2320 15000 16800 28100 34400
2021-01-02 00:45 3.69 3160 35200 (2016) 588 (2003) 7750 596 640 1250 1300 2320 15000 16800 28100 34400
2021-01-01 23:45 3.64 3030 45200 (2016) 553 (2003) 9000 566 630 1130 1170 2570 14100 18400 32700 43300
2021-01-01 22:45 3.59 2910 45200 (2016) 553 (2003) 9000 566 630 1130 1170 2570 14100 18400 32700 43300
2021-01-01 21:45 3.54 2790 45200 (2016) 553 (2003) 9000 566 630 1130 1170 2570 14100 18400 32700 43300
2021-01-01 20:45 3.49 2670 45200 (2016) 553 (2003) 9000 566 630 1130 1170 2570 14100 18400 32700 43300
2021-01-01 19:45 3.45 2590 45200 (2016) 553 (2003) 9000 566 630 1130 1170 2570 14100 18400 32700 43300
2021-01-01 18:45 3.42 2520 45200 (2016) 553 (2003) 9000 566 630 1130 1170 2570 14100 18400 32700 43300
2021-01-01 17:45 3.39 2460 45200 (2016) 553 (2003) 9000 566 630 1130 1170 2570 14100 18400 32700 43300
2021-01-01 16:45 3.34 2360 45200 (2016) 553 (2003) 9000 566 630 1130 1170 2570 14100 18400 32700 43300
2021-01-01 15:45 3.30 2280 45200 (2016) 553 (2003) 9000 566 630 1130 1170 2570 14100 18400 32700 43300
2021-01-01 14:45 3.24 2160 45200 (2016) 553 (2003) 9000 566 630 1130 1170 2570 14100 18400 32700 43300
2021-01-01 13:45 3.18 2050 45200 (2016) 553 (2003) 9000 566 630 1130 1170 2570 14100 18400 32700 43300
2021-01-01 12:45 3.12 1940 45200 (2016) 553 (2003) 9000 566 630 1130 1170 2570 14100 18400 32700 43300
2021-01-01 11:45 3.05 1820 45200 (2016) 553 (2003) 9000 566 630 1130 1170 2570 14100 18400 32700 43300
2021-01-01 10:45 2.97 1700 45200 (2016) 553 (2003) 9000 566 630 1130 1170 2570 14100 18400 32700 43300
2021-01-01 09:45 2.89 1570 45200 (2016) 553 (2003) 9000 566 630 1130 1170 2570 14100 18400 32700 43300
2021-01-01 08:45 2.84 1500 45200 (2016) 553 (2003) 9000 566 630 1130 1170 2570 14100 18400 32700 43300
2021-01-01 07:45 2.80 1450 45200 (2016) 553 (2003) 9000 566 630 1130 1170 2570 14100 18400 32700 43300
2021-01-01 06:45 2.75 1380 45200 (2016) 553 (2003) 9000 566 630 1130 1170 2570 14100 18400 32700 43300
2021-01-01 05:45 2.74 1360 45200 (2016) 553 (2003) 9000 566 630 1130 1170 2570 14100 18400 32700 43300
2021-01-01 03:45 2.62 1210 45200 (2016) 553 (2003) 9000 566 630 1130 1170 2570 14100 18400 32700 43300
2021-01-01 02:45 2.62 1210 45200 (2016) 553 (2003) 9000 566 630 1130 1170 2570 14100 18400 32700 43300
2021-01-01 01:45 2.60 1190 45200 (2016) 553 (2003) 9000 566 630 1130 1170 2570 14100 18400 32700 43300
2021-01-01 00:45 2.60 1190 45200 (2016) 553 (2003) 9000 566 630 1130 1170 2570 14100 18400 32700 43300
2020-12-31 23:45 2.59 1180 71600 (2016) 542 (2003) 10500 563 648 1030 1150 2350 14200 21200 28400 63100
2020-12-31 22:45 2.59 1180 71600 (2016) 542 (2003) 10500 563 648 1030 1150 2350 14200 21200 28400 63100
2020-12-31 21:45 2.59 1180 71600 (2016) 542 (2003) 10500 563 648 1030 1150 2350 14200 21200 28400 63100
2020-12-31 20:45 2.59 1180 71600 (2016) 542 (2003) 10500 563 648 1030 1150 2350 14200 21200 28400 63100
2020-12-31 19:45 2.59 1180 71600 (2016) 542 (2003) 10500 563 648 1030 1150 2350 14200 21200 28400 63100
2020-12-31 18:45 2.59 1180 71600 (2016) 542 (2003) 10500 563 648 1030 1150 2350 14200 21200 28400 63100
2020-12-31 17:45 2.59 1180 71600 (2016) 542 (2003) 10500 563 648 1030 1150 2350 14200 21200 28400 63100
2020-12-31 16:45 2.59 1180 71600 (2016) 542 (2003) 10500 563 648 1030 1150 2350 14200 21200 28400 63100
2020-12-31 15:45 2.59 1180 71600 (2016) 542 (2003) 10500 563 648 1030 1150 2350 14200 21200 28400 63100
2020-12-31 14:45 2.59 1180 71600 (2016) 542 (2003) 10500 563 648 1030 1150 2350 14200 21200 28400 63100
2020-12-31 13:45 2.59 1180 71600 (2016) 542 (2003) 10500 563 648 1030 1150 2350 14200 21200 28400 63100
2020-12-31 12:45 2.59 1180 71600 (2016) 542 (2003) 10500 563 648 1030 1150 2350 14200 21200 28400 63100
2020-12-31 11:45 2.59 1180 71600 (2016) 542 (2003) 10500 563 648 1030 1150 2350 14200 21200 28400 63100
2020-12-31 10:45 2.59 1180 71600 (2016) 542 (2003) 10500 563 648 1030 1150 2350 14200 21200 28400 63100
2020-12-31 09:45 2.58 1160 71600 (2016) 542 (2003) 10500 563 648 1030 1150 2350 14200 21200 28400 63100
2020-12-31 08:45 2.59 1180 71600 (2016) 542 (2003) 10500 563 648 1030 1150 2350 14200 21200 28400 63100
2020-12-31 07:45 2.59 1180 71600 (2016) 542 (2003) 10500 563 648 1030 1150 2350 14200 21200 28400 63100
2020-12-31 06:45 2.59 1180 71600 (2016) 542 (2003) 10500 563 648 1030 1150 2350 14200 21200 28400 63100
2020-12-31 05:45 2.59 1180 71600 (2016) 542 (2003) 10500 563 648 1030 1150 2350 14200 21200 28400 63100
2020-12-31 04:45 2.59 1180 71600 (2016) 542 (2003) 10500 563 648 1030 1150 2350 14200 21200 28400 63100
2020-12-31 03:45 2.60 1190 71600 (2016) 542 (2003) 10500 563 648 1030 1150 2350 14200 21200 28400 63100
2020-12-31 02:45 2.60 1190 71600 (2016) 542 (2003) 10500 563 648 1030 1150 2350 14200 21200 28400 63100
2020-12-31 01:45 2.60 1190 71600 (2016) 542 (2003) 10500 563 648 1030 1150 2350 14200 21200 28400 63100
2020-12-31 00:45 2.60 1190 71600 (2016) 542 (2003) 10500 563 648 1030 1150 2350 14200 21200 28400 63100
2020-12-30 23:45 2.60 1190 101000 (2016) 547 (2003) 11100 566 645 1020 1150 3640 14200 16400 24500 86600
2020-12-30 22:45 2.60 1190 101000 (2016) 547 (2003) 11100 566 645 1020 1150 3640 14200 16400 24500 86600
2020-12-30 21:45 2.60 1190 101000 (2016) 547 (2003) 11100 566 645 1020 1150 3640 14200 16400 24500 86600
2020-12-30 20:45 2.61 1200 101000 (2016) 547 (2003) 11100 566 645 1020 1150 3640 14200 16400 24500 86600
2020-12-30 19:45 2.61 1200 101000 (2016) 547 (2003) 11100 566 645 1020 1150 3640 14200 16400 24500 86600
2020-12-30 18:45 2.61 1200 101000 (2016) 547 (2003) 11100 566 645 1020 1150 3640 14200 16400 24500 86600
2020-12-30 17:45 2.61 1200 101000 (2016) 547 (2003) 11100 566 645 1020 1150 3640 14200 16400 24500 86600
2020-12-30 16:45 2.61 1200 101000 (2016) 547 (2003) 11100 566 645 1020 1150 3640 14200 16400 24500 86600
2020-12-30 15:45 2.61 1200 101000 (2016) 547 (2003) 11100 566 645 1020 1150 3640 14200 16400 24500 86600
2020-12-30 14:45 2.61 1200 101000 (2016) 547 (2003) 11100 566 645 1020 1150 3640 14200 16400 24500 86600
2020-12-30 13:45 2.61 1200 101000 (2016) 547 (2003) 11100 566 645 1020 1150 3640 14200 16400 24500 86600
2020-12-30 12:45 2.61 1200 101000 (2016) 547 (2003) 11100 566 645 1020 1150 3640 14200 16400 24500 86600
2020-12-30 11:45 2.61 1200 101000 (2016) 547 (2003) 11100 566 645 1020 1150 3640 14200 16400 24500 86600
2020-12-30 10:45 2.61 1200 101000 (2016) 547 (2003) 11100 566 645 1020 1150 3640 14200 16400 24500 86600
2020-12-30 09:45 2.60 1190 101000 (2016) 547 (2003) 11100 566 645 1020 1150 3640 14200 16400 24500 86600
2020-12-30 08:45 2.61 1200 101000 (2016) 547 (2003) 11100 566 645 1020 1150 3640 14200 16400 24500 86600
2020-12-30 07:45 2.60 1190 101000 (2016) 547 (2003) 11100 566 645 1020 1150 3640 14200 16400 24500 86600
2020-12-30 06:45 2.60 1190 101000 (2016) 547 (2003) 11100 566 645 1020 1150 3640 14200 16400 24500 86600
2020-12-30 05:45 2.59 1180 101000 (2016) 547 (2003) 11100 566 645 1020 1150 3640 14200 16400 24500 86600
2020-12-30 04:45 2.61 1200 101000 (2016) 547 (2003) 11100 566 645 1020 1150 3640 14200 16400 24500 86600
2020-12-30 03:45 2.60 1190 101000 (2016) 547 (2003) 11100 566 645 1020 1150 3640 14200 16400 24500 86600
2020-12-30 02:45 2.60 1190 101000 (2016) 547 (2003) 11100 566 645 1020 1150 3640 14200 16400 24500 86600
2020-12-30 01:45 2.59 1180 101000 (2016) 547 (2003) 11100 566 645 1020 1150 3640 14200 16400 24500 86600
2020-12-30 00:45 2.59 1180 101000 (2016) 547 (2003) 11100 566 645 1020 1150 3640 14200 16400 24500 86600
2020-12-29 23:45 2.60 1190 114000 (2016) 548 (2003) 9970 566 647 1060 1160 2030 10800 12300 18300 95000
2020-12-29 22:45 2.59 1180 114000 (2016) 548 (2003) 9970 566 647 1060 1160 2030 10800 12300 18300 95000
2020-12-29 21:45 2.60 1190 114000 (2016) 548 (2003) 9970 566 647 1060 1160 2030 10800 12300 18300 95000
2020-12-29 20:45 2.60 1190 114000 (2016) 548 (2003) 9970 566 647 1060 1160 2030 10800 12300 18300 95000
2020-12-29 19:45 2.60 1190 114000 (2016) 548 (2003) 9970 566 647 1060 1160 2030 10800 12300 18300 95000
2020-12-29 18:45 2.60 1190 114000 (2016) 548 (2003) 9970 566 647 1060 1160 2030 10800 12300 18300 95000
2020-12-29 17:45 2.60 1190 114000 (2016) 548 (2003) 9970 566 647 1060 1160 2030 10800 12300 18300 95000
2020-12-29 16:45 2.60 1190 114000 (2016) 548 (2003) 9970 566 647 1060 1160 2030 10800 12300 18300 95000
2020-12-29 15:45 2.61 1200 114000 (2016) 548 (2003) 9970 566 647 1060 1160 2030 10800 12300 18300 95000
2020-12-29 14:45 2.61 1200 114000 (2016) 548 (2003) 9970 566 647 1060 1160 2030 10800 12300 18300 95000
2020-12-29 13:45 2.62 1210 114000 (2016) 548 (2003) 9970 566 647 1060 1160 2030 10800 12300 18300 95000
2020-12-29 12:45 2.61 1200 114000 (2016) 548 (2003) 9970 566 647 1060 1160 2030 10800 12300 18300 95000
2020-12-29 11:45 2.61 1200 114000 (2016) 548 (2003) 9970 566 647 1060 1160 2030 10800 12300 18300 95000
2020-12-29 10:45 2.61 1200 114000 (2016) 548 (2003) 9970 566 647 1060 1160 2030 10800 12300 18300 95000
2020-12-29 09:45 2.61 1200 114000 (2016) 548 (2003) 9970 566 647 1060 1160 2030 10800 12300 18300 95000
2020-12-29 08:45 2.62 1210 114000 (2016) 548 (2003) 9970 566 647 1060 1160 2030 10800 12300 18300 95000
2020-12-29 07:45 2.62 1210 114000 (2016) 548 (2003) 9970 566 647 1060 1160 2030 10800 12300 18300 95000
2020-12-29 06:45 2.61 1200 114000 (2016) 548 (2003) 9970 566 647 1060 1160 2030 10800 12300 18300 95000
2020-12-29 05:45 2.61 1200 114000 (2016) 548 (2003) 9970 566 647 1060 1160 2030 10800 12300 18300 95000
2020-12-29 04:45 2.60 1190 114000 (2016) 548 (2003) 9970 566 647 1060 1160 2030 10800 12300 18300 95000
2020-12-29 03:45 2.59 1180 114000 (2016) 548 (2003) 9970 566 647 1060 1160 2030 10800 12300 18300 95000
2020-12-29 02:45 2.60 1190 114000 (2016) 548 (2003) 9970 566 647 1060 1160 2030 10800 12300 18300 95000
2020-12-29 01:45 2.59 1180 114000 (2016) 548 (2003) 9970 566 647 1060 1160 2030 10800 12300 18300 95000
2020-12-29 00:45 2.59 1180 114000 (2016) 548 (2003) 9970 566 647 1060 1160 2030 10800 12300 18300 95000
2020-12-28 23:45 2.59 1180 107000 (2016) 560 (2003) 10900 581 667 1060 1200 3210 13300 15700 22300 90200
2020-12-28 22:45 2.59 1180 107000 (2016) 560 (2003) 10900 581 667 1060 1200 3210 13300 15700 22300 90200
2020-12-28 21:45 2.59 1180 107000 (2016) 560 (2003) 10900 581 667 1060 1200 3210 13300 15700 22300 90200
2020-12-28 20:45 2.60 1190 107000 (2016) 560 (2003) 10900 581 667 1060 1200 3210 13300 15700 22300 90200
2020-12-28 19:45 2.60 1190 107000 (2016) 560 (2003) 10900 581 667 1060 1200 3210 13300 15700 22300 90200
2020-12-28 18:45 2.60 1190 107000 (2016) 560 (2003) 10900 581 667 1060 1200 3210 13300 15700 22300 90200
2020-12-28 17:45 2.61 1200 107000 (2016) 560 (2003) 10900 581 667 1060 1200 3210 13300 15700 22300 90200
2020-12-28 16:45 2.61 1200 107000 (2016) 560 (2003) 10900 581 667 1060 1200 3210 13300 15700 22300 90200
2020-12-28 15:45 2.61 1200 107000 (2016) 560 (2003) 10900 581 667 1060 1200 3210 13300 15700 22300 90200
2020-12-28 14:45 2.61 1200 107000 (2016) 560 (2003) 10900 581 667 1060 1200 3210 13300 15700 22300 90200
2020-12-28 13:45 2.62 1210 107000 (2016) 560 (2003) 10900 581 667 1060 1200 3210 13300 15700 22300 90200
2020-12-28 12:45 2.63 1220 107000 (2016) 560 (2003) 10900 581 667 1060 1200 3210 13300 15700 22300 90200
2020-12-28 11:45 2.63 1220 107000 (2016) 560 (2003) 10900 581 667 1060 1200 3210 13300 15700 22300 90200
2020-12-28 10:45 2.64 1240 107000 (2016) 560 (2003) 10900 581 667 1060 1200 3210 13300 15700 22300 90200
2020-12-28 09:45 2.64 1240 107000 (2016) 560 (2003) 10900 581 667 1060 1200 3210 13300 15700 22300 90200
2020-12-28 08:45 2.65 1250 107000 (2016) 560 (2003) 10900 581 667 1060 1200 3210 13300 15700 22300 90200
2020-12-28 07:45 2.66 1260 107000 (2016) 560 (2003) 10900 581 667 1060 1200 3210 13300 15700 22300 90200
2020-12-28 06:45 2.66 1260 107000 (2016) 560 (2003) 10900 581 667 1060 1200 3210 13300 15700 22300 90200
2020-12-28 05:45 2.67 1270 107000 (2016) 560 (2003) 10900 581 667 1060 1200 3210 13300 15700 22300 90200
2020-12-28 04:45 2.68 1290 107000 (2016) 560 (2003) 10900 581 667 1060 1200 3210 13300 15700 22300 90200
2020-12-28 03:45 2.70 1310 107000 (2016) 560 (2003) 10900 581 667 1060 1200 3210 13300 15700 22300 90200
2020-12-28 02:45 2.71 1320 107000 (2016) 560 (2003) 10900 581 667 1060 1200 3210 13300 15700 22300 90200
2020-12-28 01:45 2.73 1350 107000 (2016) 560 (2003) 10900 581 667 1060 1200 3210 13300 15700 22300 90200
2020-12-28 00:45 2.75 1380 107000 (2016) 560 (2003) 10900 581 667 1060 1200 3210 13300 15700 22300 90200
2020-12-27 23:45 2.76 1390 83600 (2016) 565 (2003) 9280 586 670 1060 1230 2040 10700 13400 21600 71300
2020-12-27 22:45 2.78 1420 83600 (2016) 565 (2003) 9280 586 670 1060 1230 2040 10700 13400 21600 71300
2020-12-27 21:45 2.80 1450 83600 (2016) 565 (2003) 9280 586 670 1060 1230 2040 10700 13400 21600 71300
2020-12-27 20:45 2.82 1470 83600 (2016) 565 (2003) 9280 586 670 1060 1230 2040 10700 13400 21600 71300
2020-12-27 19:45 2.85 1520 83600 (2016) 565 (2003) 9280 586 670 1060 1230 2040 10700 13400 21600 71300
2020-12-27 18:45 2.88 1560 83600 (2016) 565 (2003) 9280 586 670 1060 1230 2040 10700 13400 21600 71300
2020-12-27 17:45 2.92 1620 83600 (2016) 565 (2003) 9280 586 670 1060 1230 2040 10700 13400 21600 71300
2020-12-27 16:45 2.97 1700 83600 (2016) 565 (2003) 9280 586 670 1060 1230 2040 10700 13400 21600 71300
2020-12-27 15:45 3.02 1780 83600 (2016) 565 (2003) 9280 586 670 1060 1230 2040 10700 13400 21600 71300
2020-12-27 14:45 3.07 1860 83600 (2016) 565 (2003) 9280 586 670 1060 1230 2040 10700 13400 21600 71300
2020-12-27 13:45 3.12 1940 83600 (2016) 565 (2003) 9280 586 670 1060 1230 2040 10700 13400 21600 71300
2020-12-27 12:45 3.19 2070 83600 (2016) 565 (2003) 9280 586 670 1060 1230 2040 10700 13400 21600 71300
2020-12-27 11:45 3.25 2180 83600 (2016) 565 (2003) 9280 586 670 1060 1230 2040 10700 13400 21600 71300
2020-12-27 10:45 3.33 2340 83600 (2016) 565 (2003) 9280 586 670 1060 1230 2040 10700 13400 21600 71300
2020-12-27 09:45 3.41 2500 83600 (2016) 565 (2003) 9280 586 670 1060 1230 2040 10700 13400 21600 71300
2020-12-27 08:45 3.49 2670 83600 (2016) 565 (2003) 9280 586 670 1060 1230 2040 10700 13400 21600 71300
2020-12-27 07:45 3.59 2910 83600 (2016) 565 (2003) 9280 586 670 1060 1230 2040 10700 13400 21600 71300
2020-12-27 06:45 3.71 3210 83600 (2016) 565 (2003) 9280 586 670 1060 1230 2040 10700 13400 21600 71300
2020-12-27 05:45 3.84 3550 83600 (2016) 565 (2003) 9280 586 670 1060 1230 2040 10700 13400 21600 71300
2020-12-27 04:45 3.98 3910 83600 (2016) 565 (2003) 9280 586 670 1060 1230 2040 10700 13400 21600 71300
2020-12-27 03:45 4.15 4350 83600 (2016) 565 (2003) 9280 586 670 1060 1230 2040 10700 13400 21600 71300
2020-12-27 02:45 4.34 4860 83600 (2016) 565 (2003) 9280 586 670 1060 1230 2040 10700 13400 21600 71300
2020-12-27 01:45 4.56 5450 83600 (2016) 565 (2003) 9280 586 670 1060 1230 2040 10700 13400 21600 71300
2020-12-27 00:45 4.78 6060 83600 (2016) 565 (2003) 9280 586 670 1060 1230 2040 10700 13400 21600 71300
2020-12-26 23:45 5.03 6760 44600 (2016) 571 (2003) 6120 578 634 785 810 1390 9910 13200 18300 39800
2020-12-26 22:45 5.31 7510 44600 (2016) 571 (2003) 6120 578 634 785 810 1390 9910 13200 18300 39800
2020-12-26 21:45 5.60 8350 44600 (2016) 571 (2003) 6120 578 634 785 810 1390 9910 13200 18300 39800
2020-12-26 20:45 5.90 9200 44600 (2016) 571 (2003) 6120 578 634 785 810 1390 9910 13200 18300 39800
2020-12-26 19:45 6.23 10100 44600 (2016) 571 (2003) 6120 578 634 785 810 1390 9910 13200 18300 39800
2020-12-26 18:45 6.57 11100 44600 (2016) 571 (2003) 6120 578 634 785 810 1390 9910 13200 18300 39800
2020-12-26 17:45 6.90 12200 44600 (2016) 571 (2003) 6120 578 634 785 810 1390 9910 13200 18300 39800
2020-12-26 16:45 7.29 13400 44600 (2016) 571 (2003) 6120 578 634 785 810 1390 9910 13200 18300 39800
2020-12-26 15:45 7.65 14600 44600 (2016) 571 (2003) 6120 578 634 785 810 1390 9910 13200 18300 39800
2020-12-26 14:45 8.04 16000 44600 (2016) 571 (2003) 6120 578 634 785 810 1390 9910 13200 18300 39800
2020-12-26 13:45 8.41 17300 44600 (2016) 571 (2003) 6120 578 634 785 810 1390 9910 13200 18300 39800
2020-12-26 12:45 8.80 18800 44600 (2016) 571 (2003) 6120 578 634 785 810 1390 9910 13200 18300 39800
2020-12-26 11:45 9.18 20400 44600 (2016) 571 (2003) 6120 578 634 785 810 1390 9910 13200 18300 39800
2020-12-26 10:45 9.57 22000 44600 (2016) 571 (2003) 6120 578 634 785 810 1390 9910 13200 18300 39800
2020-12-26 09:45 9.95 23400 44600 (2016) 571 (2003) 6120 578 634 785 810 1390 9910 13200 18300 39800
2020-12-26 08:45 10.31 24600 44600 (2016) 571 (2003) 6120 578 634 785 810 1390 9910 13200 18300 39800
2020-12-26 07:45 10.63 25700 44600 (2016) 571 (2003) 6120 578 634 785 810 1390 9910 13200 18300 39800
2020-12-26 06:45 10.91 26700 44600 (2016) 571 (2003) 6120 578 634 785 810 1390 9910 13200 18300 39800
2020-12-26 05:45 11.08 27300 44600 (2016) 571 (2003) 6120 578 634 785 810 1390 9910 13200 18300 39800
2020-12-26 04:45 11.19 27700 44600 (2016) 571 (2003) 6120 578 634 785 810 1390 9910 13200 18300 39800
2020-12-26 03:45 11.11 27400 44600 (2016) 571 (2003) 6120 578 634 785 810 1390 9910 13200 18300 39800
2020-12-26 02:45 10.90 26700 44600 (2016) 571 (2003) 6120 578 634 785 810 1390 9910 13200 18300 39800
2020-12-26 01:45 10.59 25600 44600 (2016) 571 (2003) 6120 578 634 785 810 1390 9910 13200 18300 39800
2020-12-26 00:45 10.18 24100 44600 (2016) 571 (2003) 6120 578 634 785 810 1390 9910 13200 18300 39800
2020-12-25 23:45 9.69 22400 35600 (2016) 594 (2003) 6430 609 690 840 864 1630 10900 17900 19400 32400
2020-12-25 22:45 9.09 20000 35600 (2016) 594 (2003) 6430 609 690 840 864 1630 10900 17900 19400 32400
2020-12-25 21:45 8.41 17300 35600 (2016) 594 (2003) 6430 609 690 840 864 1630 10900 17900 19400 32400
2020-12-25 20:45 7.60 14400 35600 (2016) 594 (2003) 6430 609 690 840 864 1630 10900 17900 19400 32400
2020-12-25 19:45 6.68 11500 35600 (2016) 594 (2003) 6430 609 690 840 864 1630 10900 17900 19400 32400
2020-12-25 18:45 5.56 8230 35600 (2016) 594 (2003) 6430 609 690 840 864 1630 10900 17900 19400 32400
2020-12-25 17:45 4.33 4840 35600 (2016) 594 (2003) 6430 609 690 840 864 1630 10900 17900 19400 32400
2020-12-25 16:45 3.45 2590 35600 (2016) 594 (2003) 6430 609 690 840 864 1630 10900 17900 19400 32400
2020-12-25 15:45 3.20 2090 35600 (2016) 594 (2003) 6430 609 690 840 864 1630 10900 17900 19400 32400
2020-12-25 14:45 3.14 1980 35600 (2016) 594 (2003) 6430 609 690 840 864 1630 10900 17900 19400 32400
2020-12-25 13:45 3.11 1930 35600 (2016) 594 (2003) 6430 609 690 840 864 1630 10900 17900 19400 32400
2020-12-25 12:45 3.07 1860 35600 (2016) 594 (2003) 6430 609 690 840 864 1630 10900 17900 19400 32400
2020-12-25 11:45 3.02 1780 35600 (2016) 594 (2003) 6430 609 690 840 864 1630 10900 17900 19400 32400
2020-12-25 10:45 2.98 1710 35600 (2016) 594 (2003) 6430 609 690 840 864 1630 10900 17900 19400 32400
2020-12-25 09:45 2.94 1650 35600 (2016) 594 (2003) 6430 609 690 840 864 1630 10900 17900 19400 32400
2020-12-25 08:45 2.91 1600 35600 (2016) 594 (2003) 6430 609 690 840 864 1630 10900 17900 19400 32400
2020-12-25 07:45 2.88 1560 35600 (2016) 594 (2003) 6430 609 690 840 864 1630 10900 17900 19400 32400
2020-12-25 06:45 2.84 1500 35600 (2016) 594 (2003) 6430 609 690 840 864 1630 10900 17900 19400 32400
2020-12-25 05:45 2.80 1450 35600 (2016) 594 (2003) 6430 609 690 840 864 1630 10900 17900 19400 32400
2020-12-25 04:45 2.75 1380 35600 (2016) 594 (2003) 6430 609 690 840 864 1630 10900 17900 19400 32400
2020-12-25 03:45 2.71 1320 35600 (2016) 594 (2003) 6430 609 690 840 864 1630 10900 17900 19400 32400
2020-12-25 02:45 2.68 1290 35600 (2016) 594 (2003) 6430 609 690 840 864 1630 10900 17900 19400 32400
2020-12-25 01:45 2.66 1260 35600 (2016) 594 (2003) 6430 609 690 840 864 1630 10900 17900 19400 32400
2020-12-25 00:45 2.66 1260 35600 (2016) 594 (2003) 6430 609 690 840 864 1630 10900 17900 19400 32400
2020-12-24 23:45 2.66 1260 30300 (2016) 471 (1997) 5710 490 587 919 1100 1820 7910 13400 17100 27700
2020-12-24 22:45 2.67 1270 30300 (2016) 471 (1997) 5710 490 587 919 1100 1820 7910 13400 17100 27700
2020-12-24 21:45 2.69 1300 30300 (2016) 471 (1997) 5710 490 587 919 1100 1820 7910 13400 17100 27700
2020-12-24 20:45 2.71 1320 30300 (2016) 471 (1997) 5710 490 587 919 1100 1820 7910 13400 17100 27700
2020-12-24 19:45 2.74 1360 30300 (2016) 471 (1997) 5710 490 587 919 1100 1820 7910 13400 17100 27700
2020-12-24 18:45 2.76 1390 30300 (2016) 471 (1997) 5710 490 587 919 1100 1820 7910 13400 17100 27700
2020-12-24 17:45 2.79 1430 30300 (2016) 471 (1997) 5710 490 587 919 1100 1820 7910 13400 17100 27700
2020-12-24 16:45 2.82 1470 30300 (2016) 471 (1997) 5710 490 587 919 1100 1820 7910 13400 17100 27700
2020-12-24 15:45 2.85 1520 30300 (2016) 471 (1997) 5710 490 587 919 1100 1820 7910 13400 17100 27700
2020-12-24 14:45 2.88 1560 30300 (2016) 471 (1997) 5710 490 587 919 1100 1820 7910 13400 17100 27700
2020-12-24 13:45 2.94 1650 30300 (2016) 471 (1997) 5710 490 587 919 1100 1820 7910 13400 17100 27700
2020-12-24 12:45 2.99 1730 30300 (2016) 471 (1997) 5710 490 587 919 1100 1820 7910 13400 17100 27700
2020-12-24 11:45 3.03 1790 30300 (2016) 471 (1997) 5710 490 587 919 1100 1820 7910 13400 17100 27700
2020-12-24 10:45 3.07 1860 30300 (2016) 471 (1997) 5710 490 587 919 1100 1820 7910 13400 17100 27700
2020-12-24 09:45 3.14 1980 30300 (2016) 471 (1997) 5710 490 587 919 1100 1820 7910 13400 17100 27700
2020-12-24 08:45 3.19 2070 30300 (2016) 471 (1997) 5710 490 587 919 1100 1820 7910 13400 17100 27700
2020-12-24 07:45 3.24 2160 30300 (2016) 471 (1997) 5710 490 587 919 1100 1820 7910 13400 17100 27700
2020-12-24 06:45 3.31 2300 30300 (2016) 471 (1997) 5710 490 587 919 1100 1820 7910 13400 17100 27700
2020-12-24 05:45 3.38 2440 30300 (2016) 471 (1997) 5710 490 587 919 1100 1820 7910 13400 17100 27700
2020-12-24 04:45 3.44 2570 30300 (2016) 471 (1997) 5710 490 587 919 1100 1820 7910 13400 17100 27700
2020-12-24 03:45 3.52 2740 30300 (2016) 471 (1997) 5710 490 587 919 1100 1820 7910 13400 17100 27700
2020-12-24 02:45 3.57 2860 30300 (2016) 471 (1997) 5710 490 587 919 1100 1820 7910 13400 17100 27700
2020-12-24 01:45 3.63 3010 30300 (2016) 471 (1997) 5710 490 587 919 1100 1820 7910 13400 17100 27700
2020-12-24 00:45 3.69 3160 30300 (2016) 471 (1997) 5710 490 587 919 1100 1820 7910 13400 17100 27700
2020-12-23 23:45 3.77 3370 28100 (2016) 553 (2003) 5340 564 625 1060 1150 1680 10100 11600 17000 25900
2020-12-23 22:45 3.81 3480 28100 (2016) 553 (2003) 5340 564 625 1060 1150 1680 10100 11600 17000 25900
2020-12-23 21:45 3.86 3600 28100 (2016) 553 (2003) 5340 564 625 1060 1150 1680 10100 11600 17000 25900
2020-12-23 20:45 3.87 3630 28100 (2016) 553 (2003) 5340 564 625 1060 1150 1680 10100 11600 17000 25900
2020-12-23 19:45 3.87 3630 28100 (2016) 553 (2003) 5340 564 625 1060 1150 1680 10100 11600 17000 25900
2020-12-23 18:45 3.86 3600 28100 (2016) 553 (2003) 5340 564 625 1060 1150 1680 10100 11600 17000 25900
2020-12-23 17:45 3.77 3370 28100 (2016) 553 (2003) 5340 564 625 1060 1150 1680 10100 11600 17000 25900
2020-12-23 16:45 3.65 3060 28100 (2016) 553 (2003) 5340 564 625 1060 1150 1680 10100 11600 17000 25900
2020-12-23 15:45 3.46 2610 28100 (2016) 553 (2003) 5340 564 625 1060 1150 1680 10100 11600 17000 25900
2020-12-23 14:45 3.21 2110 28100 (2016) 553 (2003) 5340 564 625 1060 1150 1680 10100 11600 17000 25900
2020-12-23 13:45 2.95 1660 28100 (2016) 553 (2003) 5340 564 625 1060 1150 1680 10100 11600 17000 25900
2020-12-23 12:45 2.74 1360 28100 (2016) 553 (2003) 5340 564 625 1060 1150 1680 10100 11600 17000 25900
2020-12-23 11:45 2.63 1220 28100 (2016) 553 (2003) 5340 564 625 1060 1150 1680 10100 11600 17000 25900
2020-12-23 10:45 2.60 1190 28100 (2016) 553 (2003) 5340 564 625 1060 1150 1680 10100 11600 17000 25900
2020-12-23 09:45 2.59 1180 28100 (2016) 553 (2003) 5340 564 625 1060 1150 1680 10100 11600 17000 25900
2020-12-23 08:45 2.58 1160 28100 (2016) 553 (2003) 5340 564 625 1060 1150 1680 10100 11600 17000 25900
2020-12-23 07:45 2.58 1160 28100 (2016) 553 (2003) 5340 564 625 1060 1150 1680 10100 11600 17000 25900
2020-12-23 06:45 2.58 1160 28100 (2016) 553 (2003) 5340 564 625 1060 1150 1680 10100 11600 17000 25900
2020-12-23 05:45 2.59 1180 28100 (2016) 553 (2003) 5340 564 625 1060 1150 1680 10100 11600 17000 25900
2020-12-23 04:45 2.57 1150 28100 (2016) 553 (2003) 5340 564 625 1060 1150 1680 10100 11600 17000 25900
2020-12-23 03:45 2.58 1160 28100 (2016) 553 (2003) 5340 564 625 1060 1150 1680 10100 11600 17000 25900
2020-12-23 02:45 2.58 1160 28100 (2016) 553 (2003) 5340 564 625 1060 1150 1680 10100 11600 17000 25900
2020-12-23 01:45 2.58 1160 28100 (2016) 553 (2003) 5340 564 625 1060 1150 1680 10100 11600 17000 25900
2020-12-23 00:45 2.57 1150 28100 (2016) 553 (2003) 5340 564 625 1060 1150 1680 10100 11600 17000 25900
2020-12-22 23:45 2.58 1160 30300 (2016) 567 (2003) 4780 574 708 1150 1170 2130 3470 6640 15500 27400
2020-12-22 22:45 2.58 1160 30300 (2016) 567 (2003) 4780 574 708 1150 1170 2130 3470 6640 15500 27400
2020-12-22 21:45 2.58 1160 30300 (2016) 567 (2003) 4780 574 708 1150 1170 2130 3470 6640 15500 27400
2020-12-22 20:45 2.57 1150 30300 (2016) 567 (2003) 4780 574 708 1150 1170 2130 3470 6640 15500 27400
2020-12-22 19:45 2.58 1160 30300 (2016) 567 (2003) 4780 574 708 1150 1170 2130 3470 6640 15500 27400
2020-12-22 18:45 2.57 1150 30300 (2016) 567 (2003) 4780 574 708 1150 1170 2130 3470 6640 15500 27400
2020-12-22 17:45 2.57 1150 30300 (2016) 567 (2003) 4780 574 708 1150 1170 2130 3470 6640 15500 27400
2020-12-22 16:45 2.58 1160 30300 (2016) 567 (2003) 4780 574 708 1150 1170 2130 3470 6640 15500 27400
2020-12-22 15:45 2.59 1180 30300 (2016) 567 (2003) 4780 574 708 1150 1170 2130 3470 6640 15500 27400
2020-12-22 14:45 2.59 1180 30300 (2016) 567 (2003) 4780 574 708 1150 1170 2130 3470 6640 15500 27400
2020-12-22 13:45 2.59 1180 30300 (2016) 567 (2003) 4780 574 708 1150 1170 2130 3470 6640 15500 27400
2020-12-22 12:45 2.58 1160 30300 (2016) 567 (2003) 4780 574 708 1150 1170 2130 3470 6640 15500 27400
2020-12-22 11:45 2.58 1160 30300 (2016) 567 (2003) 4780 574 708 1150 1170 2130 3470 6640 15500 27400
2020-12-22 10:45 2.59 1180 30300 (2016) 567 (2003) 4780 574 708 1150 1170 2130 3470 6640 15500 27400
2020-12-22 09:45 2.58 1160 30300 (2016) 567 (2003) 4780 574 708 1150 1170 2130 3470 6640 15500 27400
2020-12-22 08:45 2.58 1160 30300 (2016) 567 (2003) 4780 574 708 1150 1170 2130 3470 6640 15500 27400
2020-12-22 07:45 2.57 1150 30300 (2016) 567 (2003) 4780 574 708 1150 1170 2130 3470 6640 15500 27400
2020-12-22 06:45 2.58 1160 30300 (2016) 567 (2003) 4780 574 708 1150 1170 2130 3470 6640 15500 27400
2020-12-22 05:45 2.58 1160 30300 (2016) 567 (2003) 4780 574 708 1150 1170 2130 3470 6640 15500 27400
2020-12-22 04:45 2.58 1160 30300 (2016) 567 (2003) 4780 574 708 1150 1170 2130 3470 6640 15500 27400
2020-12-22 03:45 2.58 1160 30300 (2016) 567 (2003) 4780 574 708 1150 1170 2130 3470 6640 15500 27400
2020-12-22 02:45 2.59 1180 30300 (2016) 567 (2003) 4780 574 708 1150 1170 2130 3470 6640 15500 27400
2020-12-22 01:45 2.59 1180 30300 (2016) 567 (2003) 4780 574 708 1150 1170 2130 3470 6640 15500 27400
2020-12-22 00:45 2.59 1180 30300 (2016) 567 (2003) 4780 574 708 1150 1170 2130 3470 6640 15500 27400
2020-12-21 23:45 2.59 1180 25700 (2016) 610 (2003) 5400 612 700 1200 1320 2620 8090 11400 15500 24200
2020-12-21 22:45 2.59 1180 25700 (2016) 610 (2003) 5400 612 700 1200 1320 2620 8090 11400 15500 24200
2020-12-21 21:45 2.59 1180 25700 (2016) 610 (2003) 5400 612 700 1200 1320 2620 8090 11400 15500 24200
2020-12-21 20:45 2.60 1190 25700 (2016) 610 (2003) 5400 612 700 1200 1320 2620 8090 11400 15500 24200
2020-12-21 19:45 2.60 1190 25700 (2016) 610 (2003) 5400 612 700 1200 1320 2620 8090 11400 15500 24200
2020-12-21 18:45 2.60 1190 25700 (2016) 610 (2003) 5400 612 700 1200 1320 2620 8090 11400 15500 24200
2020-12-21 17:45 2.60 1190 25700 (2016) 610 (2003) 5400 612 700 1200 1320 2620 8090 11400 15500 24200
2020-12-21 16:45 2.60 1190 25700 (2016) 610 (2003) 5400 612 700 1200 1320 2620 8090 11400 15500 24200
2020-12-21 15:45 2.60 1190 25700 (2016) 610 (2003) 5400 612 700 1200 1320 2620 8090 11400 15500 24200
2020-12-21 14:45 2.60 1190 25700 (2016) 610 (2003) 5400 612 700 1200 1320 2620 8090 11400 15500 24200
2020-12-21 13:45 2.61 1200 25700 (2016) 610 (2003) 5400 612 700 1200 1320 2620 8090 11400 15500 24200
2020-12-21 12:45 2.62 1210 25700 (2016) 610 (2003) 5400 612 700 1200 1320 2620 8090 11400 15500 24200
2020-12-21 11:45 2.62 1210 25700 (2016) 610 (2003) 5400 612 700 1200 1320 2620 8090 11400 15500 24200
2020-12-21 10:45 2.62 1210 25700 (2016) 610 (2003) 5400 612 700 1200 1320 2620 8090 11400 15500 24200
2020-12-21 09:45 2.62 1210 25700 (2016) 610 (2003) 5400 612 700 1200 1320 2620 8090 11400 15500 24200
2020-12-21 08:45 2.62 1210 25700 (2016) 610 (2003) 5400 612 700 1200 1320 2620 8090 11400 15500 24200
2020-12-21 07:45 2.62 1210 25700 (2016) 610 (2003) 5400 612 700 1200 1320 2620 8090 11400 15500 24200
2020-12-21 06:45 2.62 1210 25700 (2016) 610 (2003) 5400 612 700 1200 1320 2620 8090 11400 15500 24200
2020-12-21 05:45 2.62 1210 25700 (2016) 610 (2003) 5400 612 700 1200 1320 2620 8090 11400 15500 24200
2020-12-21 04:45 2.62 1210 25700 (2016) 610 (2003) 5400 612 700 1200 1320 2620 8090 11400 15500 24200
2020-12-21 03:45 2.62 1210 25700 (2016) 610 (2003) 5400 612 700 1200 1320 2620 8090 11400 15500 24200
2020-12-21 02:45 2.63 1220 25700 (2016) 610 (2003) 5400 612 700 1200 1320 2620 8090 11400 15500 24200
2020-12-21 01:45 2.63 1220 25700 (2016) 610 (2003) 5400 612 700 1200 1320 2620 8090 11400 15500 24200
2020-12-21 00:45 2.64 1240 25700 (2016) 610 (2003) 5400 612 700 1200 1320 2620 8090 11400 15500 24200
2020-12-20 23:45 2.64 1240 27600 (2016) 638 (2006) 6610 662 790 1100 1170 2750 8940 12300 22700 27200
2020-12-20 22:45 2.65 1250 27600 (2016) 638 (2006) 6610 662 790 1100 1170 2750 8940 12300 22700 27200
2020-12-20 21:45 2.65 1250 27600 (2016) 638 (2006) 6610 662 790 1100 1170 2750 8940 12300 22700 27200
2020-12-20 20:45 2.66 1260 27600 (2016) 638 (2006) 6610 662 790 1100 1170 2750 8940 12300 22700 27200
2020-12-20 19:45 2.67 1270 27600 (2016) 638 (2006) 6610 662 790 1100 1170 2750 8940 12300 22700 27200
2020-12-20 18:45 2.67 1270 27600 (2016) 638 (2006) 6610 662 790 1100 1170 2750 8940 12300 22700 27200
2020-12-20 17:45 2.68 1290 27600 (2016) 638 (2006) 6610 662 790 1100 1170 2750 8940 12300 22700 27200
2020-12-20 16:45 2.69 1300 27600 (2016) 638 (2006) 6610 662 790 1100 1170 2750 8940 12300 22700 27200
2020-12-20 15:45 2.70 1310 27600 (2016) 638 (2006) 6610 662 790 1100 1170 2750 8940 12300 22700 27200
2020-12-20 14:45 2.71 1320 27600 (2016) 638 (2006) 6610 662 790 1100 1170 2750 8940 12300 22700 27200
2020-12-20 13:45 2.73 1350 27600 (2016) 638 (2006) 6610 662 790 1100 1170 2750 8940 12300 22700 27200
2020-12-20 12:45 2.74 1360 27600 (2016) 638 (2006) 6610 662 790 1100 1170 2750 8940 12300 22700 27200
2020-12-20 11:45 2.75 1380 27600 (2016) 638 (2006) 6610 662 790 1100 1170 2750 8940 12300 22700 27200
2020-12-20 10:45 2.77 1400 27600 (2016) 638 (2006) 6610 662 790 1100 1170 2750 8940 12300 22700 27200
2020-12-20 09:45 2.78 1420 27600 (2016) 638 (2006) 6610 662 790 1100 1170 2750 8940 12300 22700 27200
2020-12-20 08:45 2.79 1430 27600 (2016) 638 (2006) 6610 662 790 1100 1170 2750 8940 12300 22700 27200
2020-12-20 07:45 2.81 1460 27600 (2016) 638 (2006) 6610 662 790 1100 1170 2750 8940 12300 22700 27200
2020-12-20 06:45 2.83 1490 27600 (2016) 638 (2006) 6610 662 790 1100 1170 2750 8940 12300 22700 27200
2020-12-20 05:45 2.85 1520 27600 (2016) 638 (2006) 6610 662 790 1100 1170 2750 8940 12300 22700 27200
2020-12-20 04:45 2.88 1560 27600 (2016) 638 (2006) 6610 662 790 1100 1170 2750 8940 12300 22700 27200
2020-12-20 03:45 2.91 1600 27600 (2016) 638 (2006) 6610 662 790 1100 1170 2750 8940 12300 22700 27200
2020-12-20 02:45 2.94 1650 27600 (2016) 638 (2006) 6610 662 790 1100 1170 2750 8940 12300 22700 27200
2020-12-20 01:45 2.97 1700 27600 (2016) 638 (2006) 6610 662 790 1100 1170 2750 8940 12300 22700 27200
2020-12-20 00:45 3.01 1760 27600 (2016) 638 (2006) 6610 662 790 1100 1170 2750 8940 12300 22700 27200

A total of 741 rows are displayed for years 1997 through 2020.